Wetterdaten: Donnerstag, 18.12.2014
Datum Zeit Temp. Aussen +5cm Feuchte Auss Luftdruck Regen Sonnenschein Regendauer Solar Windben
18.12.2014 00:00 9,8 C 8,3 C 99 % 1009,5 hPa 0,0 l/m 0 min 0 min 0 W/m 12,6 km/h (3 Bft)
18.12.2014 00:04 9,8 C 8,3 C 99 % 1009,6 hPa 0,0 l/m 0 min 0 min 0 W/m 14,6 km/h (3 Bft)
18.12.2014 00:07 9,8 C 8,3 C 99 % 1009,5 hPa 0,0 l/m 0 min 0 min 0 W/m 16,7 km/h (3 Bft)
18.12.2014 00:08 9,8 C 8,3 C 99 % 1009,5 hPa 0,0 l/m 0 min 0 min 0 W/m 16,7 km/h (3 Bft)
18.12.2014 00:10 9,8 C 8,3 C 99 % 1009,6 hPa 0,0 l/m 0 min 0 min 0 W/m 14,6 km/h (3 Bft)
18.12.2014 00:14 9,8 C 8,3 C 99 % 1009,7 hPa 0,0 l/m 0 min 0 min 0 W/m 12,6 km/h (3 Bft)
18.12.2014 00:16 9,8 C 8,3 C 99 % 1009,7 hPa 0,0 l/m 0 min 0 min 0 W/m 16,7 km/h (3 Bft)
18.12.2014 00:18 9,8 C 8,3 C 99 % 1009,7 hPa 0,0 l/m 0 min 0 min 0 W/m 16,7 km/h (3 Bft)
18.12.2014 00:20 9,8 C 8,3 C 99 % 1009,6 hPa 0,0 l/m 0 min 0 min 0 W/m 16,7 km/h (3 Bft)
18.12.2014 00:22 9,9 C 8,3 C 99 % 1009,6 hPa 0,0 l/m 0 min 0 min 0 W/m 12,6 km/h (3 Bft)
18.12.2014 00:24 9,9 C 8,3 C 99 % 1009,6 hPa 0,0 l/m 0 min 0 min 0 W/m 12,6 km/h (3 Bft)
18.12.2014 00:26 9,9 C 8,3 C 99 % 1009,6 hPa 0,0 l/m 0 min 0 min 0 W/m 14,6 km/h (3 Bft)
18.12.2014 00:28 9,9 C 8,3 C 99 % 1009,7 hPa 0,0 l/m 0 min 0 min 0 W/m 14,6 km/h (3 Bft)
18.12.2014 00:30 9,9 C 8,3 C 99 % 1009,7 hPa 0,0 l/m 0 min 0 min 0 W/m 10,5 km/h (2 Bft)
18.12.2014 00:32 9,9 C 8,3 C 99 % 1009,7 hPa 0,0 l/m 0 min 0 min 0 W/m 12,6 km/h (3 Bft)
18.12.2014 00:34 9,9 C 8,3 C 99 % 1009,7 hPa 0,0 l/m 0 min 0 min 0 W/m 14,6 km/h (3 Bft)
18.12.2014 00:36 9,9 C 8,3 C 99 % 1009,8 hPa 0,0 l/m 0 min 0 min 0 W/m 16,7 km/h (3 Bft)
18.12.2014 00:38 9,9 C 8,3 C 99 % 1009,8 hPa 0,0 l/m 0 min 0 min 0 W/m 14,6 km/h (3 Bft)
18.12.2014 00:40 9,9 C 8,3 C 99 % 1009,9 hPa 0,0 l/m 0 min 0 min 0 W/m 18,8 km/h (3 Bft)
18.12.2014 00:42 9,9 C 8,3 C 99 % 1009,9 hPa 0,0 l/m 0 min 0 min 0 W/m 10,5 km/h (2 Bft)
18.12.2014 00:44 9,9 C 8,3 C 100 % 1010,0 hPa 0,0 l/m 0 min 0 min 0 W/m 14,6 km/h (3 Bft)
18.12.2014 00:46 9,9 C 8,3 C 99 % 1010,0 hPa 0,0 l/m 0 min 0 min 0 W/m 10,5 km/h (2 Bft)
18.12.2014 00:48 9,9 C 8,3 C 99 % 1010,0 hPa 0,0 l/m 0 min 0 min 0 W/m 12,6 km/h (3 Bft)
18.12.2014 00:50 9,9 C 8,3 C 99 % 1009,9 hPa 0,0 l/m 0 min 0 min 0 W/m 12,6 km/h (3 Bft)
18.12.2014 00:52 9,9 C 8,3 C 100 % 1009,8 hPa 0,0 l/m 0 min 0 min 0 W/m 8,4 km/h (2 Bft)
18.12.2014 00:54 9,9 C 8,3 C 100 % 1009,9 hPa 0,0 l/m 0 min 0 min 0 W/m 8,4 km/h (2 Bft)
18.12.2014 00:56 9,9 C 8,3 C 100 % 1009,9 hPa 0,0 l/m 0 min 0 min 0 W/m 14,6 km/h (3 Bft)
18.12.2014 00:58 9,9 C 8,3 C 99 % 1010,0 hPa 0,0 l/m 0 min 0 min 0 W/m 10,5 km/h (2 Bft)
18.12.2014 01:00 9,9 C 8,3 C 100 % 1010,0 hPa 0,2 l/m 0 min 0 min 0 W/m 8,4 km/h (2 Bft)
18.12.2014 01:02 9,9 C 8,3 C 100 % 1010,1 hPa 0,0 l/m 0 min 0 min 0 W/m 8,4 km/h (2 Bft)
18.12.2014 01:04 9,9 C 8,3 C 100 % 1010,0 hPa 0,0 l/m 0 min 0 min 0 W/m 8,4 km/h (2 Bft)
18.12.2014 01:06 9,9 C 8,3 C 100 % 1010,0 hPa 0,0 l/m 0 min 0 min 0 W/m 12,6 km/h (3 Bft)
18.12.2014 01:08 9,9 C 8,3 C 100 % 1009,9 hPa 0,0 l/m 0 min 0 min 0 W/m 10,5 km/h (2 Bft)
18.12.2014 01:10 9,9 C 8,3 C 100 % 1009,9 hPa 0,0 l/m 0 min 0 min 0 W/m 10,5 km/h (2 Bft)
18.12.2014 01:12 9,9 C 8,3 C 100 % 1009,9 hPa 0,0 l/m 0 min 0 min 0 W/m 8,4 km/h (2 Bft)
18.12.2014 01:14 9,8 C 8,3 C 100 % 1009,8 hPa 0,0 l/m 0 min 0 min 0 W/m 8,4 km/h (2 Bft)
18.12.2014 01:16 9,9 C 8,3 C 100 % 1009,8 hPa 0,0 l/m 0 min 0 min 0 W/m 16,7 km/h (3 Bft)
18.12.2014 01:18 9,8 C 8,3 C 100 % 1009,8 hPa 0,0 l/m 0 min 0 min 0 W/m 12,6 km/h (3 Bft)
18.12.2014 01:20 9,8 C 8,3 C 100 % 1009,9 hPa 0,0 l/m 0 min 0 min 0 W/m 10,5 km/h (2 Bft)
18.12.2014 01:22 9,9 C 8,3 C 100 % 1009,9 hPa 0,0 l/m 0 min 0 min 0 W/m 10,5 km/h (2 Bft)
18.12.2014 01:24 9,9 C 8,3 C 100 % 1009,8 hPa 0,0 l/m 0 min 0 min 0 W/m 10,5 km/h (2 Bft)
18.12.2014 01:26 9,9 C 8,3 C 100 % 1009,9 hPa 0,0 l/m 0 min 0 min 0 W/m 16,7 km/h (3 Bft)
18.12.2014 01:28 9,9 C 8,3 C 100 % 1009,8 hPa 0,0 l/m 0 min 0 min 0 W/m 14,6 km/h (3 Bft)
18.12.2014 01:30 9,9 C 8,3 C 100 % 1009,8 hPa 0,0 l/m 0 min 0 min 0 W/m 12,6 km/h (3 Bft)
18.12.2014 01:32 9,9 C 8,3 C 100 % 1009,8 hPa 0,0 l/m 0 min 0 min 0 W/m 16,7 km/h (3 Bft)
18.12.2014 01:34 9,9 C 8,3 C 100 % 1009,8 hPa 0,0 l/m 0 min 0 min 0 W/m 14,6 km/h (3 Bft)
18.12.2014 01:36 9,9 C 8,3 C 100 % 1009,9 hPa 0,0 l/m 0 min 0 min 0 W/m 16,7 km/h (3 Bft)
18.12.2014 01:38 9,9 C 8,3 C 100 % 1009,8 hPa 0,0 l/m 0 min 0 min 0 W/m 16,7 km/h (3 Bft)
18.12.2014 01:40 9,9 C 8,3 C 100 % 1009,8 hPa 0,0 l/m 0 min 0 min 0 W/m 18,8 km/h (3 Bft)
18.12.2014 01:42 9,9 C 8,3 C 100 % 1009,8 hPa 0,0 l/m 0 min 0 min 0 W/m 16,7 km/h (3 Bft)
18.12.2014 01:44 9,9 C 8,3 C 100 % 1009,7 hPa 0,0 l/m 0 min 0 min 0 W/m 10,5 km/h (2 Bft)
18.12.2014 01:46 9,9 C 8,3 C 100 % 1009,7 hPa 0,0 l/m 0 min 0 min 0 W/m 14,6 km/h (3 Bft)
18.12.2014 01:48 9,9 C 8,3 C 100 % 1009,7 hPa 0,0 l/m 0 min 0 min 0 W/m 14,6 km/h (3 Bft)
18.12.2014 01:50 9,9 C 8,3 C 100 % 1009,7 hPa 0,0 l/m 0 min 0 min 0 W/m 12,6 km/h (3 Bft)
18.12.2014 01:52 9,9 C 8,3 C 100 % 1009,7 hPa 0,0 l/m 0 min 0 min 0 W/m 8,4 km/h (2 Bft)
18.12.2014 01:54 9,9 C 8,3 C 100 % 1009,7 hPa 0,0 l/m 0 min 0 min 0 W/m 16,7 km/h (3 Bft)
18.12.2014 01:56 9,9 C 8,3 C 100 % 1009,6 hPa 0,0 l/m 0 min 0 min 0 W/m 16,7 km/h (3 Bft)
18.12.2014 01:58 9,9 C 8,3 C 100 % 1009,7 hPa 0,0 l/m 0 min 0 min 0 W/m 12,6 km/h (3 Bft)
18.12.2014 02:00 9,9 C 8,3 C 100 % 1009,8 hPa 0,0 l/m 0 min 0 min 0 W/m 12,6 km/h (3 Bft)
18.12.2014 02:02 9,9 C 8,3 C 100 % 1009,7 hPa 0,0 l/m 0 min 0 min 0 W/m 14,6 km/h (3 Bft)
18.12.2014 02:04 9,9 C 8,3 C 100 % 1009,7 hPa 0,0 l/m 0 min 0 min 0 W/m 16,7 km/h (3 Bft)
18.12.2014 02:06 9,9 C 8,3 C 100 % 1009,8 hPa 0,0 l/m 0 min 0 min 0 W/m 16,7 km/h (3 Bft)
18.12.2014 02:08 9,9 C 8,3 C 100 % 1009,6 hPa 0,0 l/m 0 min 0 min 0 W/m 16,7 km/h (3 Bft)
18.12.2014 02:10 9,9 C 8,3 C 100 % 1009,5 hPa 0,0 l/m 0 min 0 min 0 W/m 12,6 km/h (3 Bft)
18.12.2014 02:12 9,9 C 8,3 C 100 % 1009,5 hPa 0,0 l/m 0 min 0 min 0 W/m 12,6 km/h (3 Bft)
18.12.2014 02:14 9,9 C 8,3 C 100 % 1009,4 hPa 0,0 l/m 0 min 0 min 0 W/m 14,6 km/h (3 Bft)
18.12.2014 02:16 9,9 C 8,3 C 100 % 1009,5 hPa 0,0 l/m 0 min 0 min 0 W/m 14,6 km/h (3 Bft)
18.12.2014 02:18 9,9 C 8,3 C 100 % 1009,4 hPa 0,0 l/m 0 min 0 min 0 W/m 12,6 km/h (3 Bft)
18.12.2014 02:20 9,9 C 8,3 C 100 % 1009,5 hPa 0,0 l/m 0 min 0 min 0 W/m 14,6 km/h (3 Bft)
18.12.2014 02:22 9,9 C 8,3 C 100 % 1009,5 hPa 0,0 l/m 0 min 0 min 0 W/m 14,6 km/h (3 Bft)
18.12.2014 02:24 9,9 C 8,3 C 100 % 1009,5 hPa 0,0 l/m 0 min 0 min 0 W/m 14,6 km/h (3 Bft)
18.12.2014 02:26 9,9 C 8,3 C 100 % 1009,5 hPa 0,0 l/m 0 min 0 min 0 W/m 14,6 km/h (3 Bft)
18.12.2014 02:28 9,9 C 8,3 C 100 % 1009,5 hPa 0,0 l/m 0 min 0 min 0 W/m 18,8 km/h (3 Bft)
18.12.2014 02:30 9,9 C 8,3 C 100 % 1009,6 hPa 0,0 l/m 0 min 0 min 0 W/m 16,7 km/h (3 Bft)
18.12.2014 02:32 9,9 C 8,3 C 100 % 1009,6 hPa 0,0 l/m 0 min 0 min 0 W/m 14,6 km/h (3 Bft)
18.12.2014 02:34 9,9 C 8,3 C 100 % 1009,7 hPa 0,0 l/m 0 min 0 min 0 W/m 18,8 km/h (3 Bft)
18.12.2014 02:36 9,9 C 8,3 C 100 % 1009,7 hPa 0,0 l/m 0 min 0 min 0 W/m 18,8 km/h (3 Bft)
18.12.2014 02:38 9,9 C 8,9 C 100 % 1009,7 hPa 0,0 l/m 0 min 0 min 0 W/m 16,7 km/h (3 Bft)
18.12.2014 02:40 9,9 C 8,9 C 100 % 1009,7 hPa 0,0 l/m 0 min 0 min 0 W/m 14,6 km/h (3 Bft)
18.12.2014 02:42 9,9 C 8,9 C 100 % 1009,7 hPa 0,0 l/m 0 min 0 min 0 W/m 14,6 km/h (3 Bft)
18.12.2014 02:44 9,9 C 8,3 C 100 % 1009,7 hPa 0,0 l/m 0 min 0 min 0 W/m 14,6 km/h (3 Bft)
18.12.2014 02:46 9,9 C 8,9 C 100 % 1009,8 hPa 0,0 l/m 0 min 0 min 0 W/m 18,8 km/h (3 Bft)
18.12.2014 02:48 9,9 C 8,9 C 100 % 1009,7 hPa 0,0 l/m 0 min 0 min 0 W/m 16,7 km/h (3 Bft)
18.12.2014 02:50 9,9 C 8,9 C 100 % 1009,6 hPa 0,0 l/m 0 min 0 min 0 W/m 14,6 km/h (3 Bft)
18.12.2014 02:52 9,9 C 8,9 C 100 % 1009,6 hPa 0,0 l/m 0 min 0 min 0 W/m 14,6 km/h (3 Bft)
18.12.2014 02:54 10,0 C 8,9 C 100 % 1009,5 hPa 0,0 l/m 0 min 0 min 0 W/m 18,8 km/h (3 Bft)
18.12.2014 02:56 10,0 C 8,9 C 100 % 1009,5 hPa 0,0 l/m 0 min 0 min 0 W/m 20,9 km/h (4 Bft)
18.12.2014 02:58 10,0 C 8,9 C 100 % 1009,4 hPa 0,0 l/m 0 min 0 min 0 W/m 14,6 km/h (3 Bft)
18.12.2014 03:00 10,0 C 8,9 C 100 % 1009,4 hPa 0,0 l/m 0 min 0 min 0 W/m 12,6 km/h (3 Bft)
18.12.2014 03:02 10,0 C 8,3 C 100 % 1009,3 hPa 0,0 l/m 0 min 0 min 0 W/m 10,5 km/h (2 Bft)
18.12.2014 03:04 10,0 C 8,3 C 100 % 1009,3 hPa 0,0 l/m 0 min 0 min 0 W/m 14,6 km/h (3 Bft)
18.12.2014 03:06 10,0 C 8,3 C 100 % 1009,3 hPa 0,0 l/m 0 min 0 min 0 W/m 16,7 km/h (3 Bft)
18.12.2014 03:08 10,0 C 8,3 C 100 % 1009,4 hPa 0,0 l/m 0 min 0 min 0 W/m 10,5 km/h (2 Bft)
18.12.2014 03:10 10,0 C 8,3 C 100 % 1009,3 hPa 0,0 l/m 0 min 0 min 0 W/m 10,5 km/h (2 Bft)
18.12.2014 03:12 10,0 C 8,3 C 100 % 1009,3 hPa 0,0 l/m 0 min 0 min 0 W/m 12,6 km/h (3 Bft)
18.12.2014 03:14 10,0 C 8,3 C 100 % 1009,3 hPa 0,0 l/m 0 min 0 min 0 W/m 10,5 km/h (2 Bft)
18.12.2014 03:16 10,0 C 8,3 C 100 % 1009,3 hPa 0,0 l/m 0 min 0 min 0 W/m 12,6 km/h (3 Bft)
18.12.2014 03:18 9,9 C 8,3 C 100 % 1009,3 hPa 0,0 l/m 0 min 0 min 0 W/m 12,6 km/h (3 Bft)
18.12.2014 03:20 9,9 C 8,3 C 100 % 1009,3 hPa 0,0 l/m 0 min 0 min 0 W/m 14,6 km/h (3 Bft)
18.12.2014 03:22 9,9 C 8,3 C 100 % 1009,3 hPa 0,0 l/m 0 min 0 min 0 W/m 12,6 km/h (3 Bft)
18.12.2014 03:24 9,9 C 8,3 C 100 % 1009,3 hPa 0,0 l/m 0 min 0 min 0 W/m 10,5 km/h (2 Bft)
18.12.2014 03:26 9,9 C 8,3 C 100 % 1009,3 hPa 0,0 l/m 0 min 0 min 0 W/m 10,5 km/h (2 Bft)
18.12.2014 03:28 9,9 C 8,3 C 100 % 1009,3 hPa 0,0 l/m 0 min 0 min 0 W/m 12,6 km/h (3 Bft)
18.12.2014 03:30 9,9 C 8,3 C 100 % 1009,3 hPa 0,0 l/m 0 min 0 min 0 W/m 14,6 km/h (3 Bft)
18.12.2014 03:32 9,9 C 8,9 C 100 % 1009,3 hPa 0,0 l/m 0 min 0 min 0 W/m 12,6 km/h (3 Bft)
18.12.2014 03:34 9,9 C 8,9 C 100 % 1009,4 hPa 0,0 l/m 0 min 0 min 0 W/m 12,6 km/h (3 Bft)
18.12.2014 03:36 9,9 C 8,9 C 100 % 1009,4 hPa 0,0 l/m 0 min 0 min 0 W/m 12,6 km/h (3 Bft)
18.12.2014 03:38 9,9 C 8,9 C 100 % 1009,4 hPa 0,0 l/m 0 min 0 min 0 W/m 18,8 km/h (3 Bft)
18.12.2014 03:40 9,9 C 8,3 C 100 % 1009,4 hPa 0,0 l/m 0 min 0 min 0 W/m 12,6 km/h (3 Bft)
18.12.2014 03:42 9,9 C 8,3 C 100 % 1009,3 hPa 0,0 l/m 0 min 0 min 0 W/m 8,4 km/h (2 Bft)
18.12.2014 03:44 9,9 C 8,9 C 100 % 1009,3 hPa 0,0 l/m 0 min 0 min 0 W/m 20,9 km/h (4 Bft)
18.12.2014 03:46 9,9 C 8,9 C 100 % 1009,3 hPa 0,0 l/m 0 min 0 min 0 W/m 23,0 km/h (4 Bft)
18.12.2014 03:48 9,9 C 8,9 C 100 % 1009,3 hPa 0,0 l/m 0 min 0 min 0 W/m 12,6 km/h (3 Bft)
18.12.2014 03:50 10,0 C 8,9 C 99 % 1009,4 hPa 0,0 l/m 0 min 0 min 0 W/m 12,6 km/h (3 Bft)
18.12.2014 03:52 9,9 C 8,9 C 99 % 1009,3 hPa 0,0 l/m 0 min 0 min 0 W/m 12,6 km/h (3 Bft)
18.12.2014 03:54 10,0 C 8,9 C 99 % 1009,3 hPa 0,0 l/m 0 min 0 min 0 W/m 16,7 km/h (3 Bft)
18.12.2014 03:56 10,0 C 8,9 C 99 % 1009,3 hPa 0,0 l/m 0 min 0 min 0 W/m 12,6 km/h (3 Bft)
18.12.2014 03:58 10,0 C 8,9 C 99 % 1009,4 hPa 0,0 l/m 0 min 0 min 0 W/m 18,8 km/h (3 Bft)
18.12.2014 04:00 10,0 C 8,9 C 99 % 1009,3 hPa 0,0 l/m 0 min 0 min 0 W/m 14,6 km/h (3 Bft)
18.12.2014 04:06 10,0 C 8,9 C 99 % 1009,2 hPa 0,0 l/m 0 min 0 min 0 W/m 20,9 km/h (4 Bft)
18.12.2014 04:08 10,0 C 8,9 C 99 % 1009,3 hPa 0,0 l/m 0 min 0 min 0 W/m 16,7 km/h (3 Bft)
18.12.2014 04:10 10,0 C 8,9 C 99 % 1009,2 hPa 0,0 l/m 0 min 0 min 0 W/m 16,7 km/h (3 Bft)
18.12.2014 04:12 10,0 C 8,9 C 99 % 1009,1 hPa 0,0 l/m 0 min 0 min 0 W/m 14,6 km/h (3 Bft)
18.12.2014 04:14 10,0 C 8,9 C 99 % 1009,2 hPa 0,0 l/m 0 min 0 min 0 W/m 23,0 km/h (4 Bft)
18.12.2014 04:16 10,0 C 8,9 C 99 % 1009,2 hPa 0,0 l/m 0 min 0 min 0 W/m 20,9 km/h (4 Bft)
18.12.2014 04:18 10,1 C 8,9 C 99 % 1009,2 hPa 0,0 l/m 0 min 0 min 0 W/m 18,8 km/h (3 Bft)
18.12.2014 04:20 10,1 C 8,9 C 99 % 1009,2 hPa 0,0 l/m 0 min 0 min 0 W/m 14,6 km/h (3 Bft)
18.12.2014 04:22 10,1 C 8,9 C 99 % 1009,2 hPa 0,0 l/m 0 min 0 min 0 W/m 14,6 km/h (3 Bft)
18.12.2014 04:24 10,1 C 8,9 C 99 % 1009,2 hPa 0,0 l/m 0 min 0 min 0 W/m 16,7 km/h (3 Bft)
18.12.2014 04:26 10,1 C 8,9 C 99 % 1009,2 hPa 0,0 l/m 0 min 2 min 0 W/m 16,7 km/h (3 Bft)
18.12.2014 04:28 10,1 C 8,9 C 99 % 1009,2 hPa 0,0 l/m 0 min 0 min 0 W/m 16,7 km/h (3 Bft)
18.12.2014 04:30 10,1 C 8,9 C 99 % 1009,2 hPa 0,0 l/m 0 min 0 min 0 W/m 25,1 km/h (4 Bft)
18.12.2014 04:32 10,1 C 8,9 C 99 % 1009,2 hPa 0,0 l/m 0 min 0 min 0 W/m 18,8 km/h (3 Bft)
18.12.2014 04:34 10,1 C 8,9 C 99 % 1009,1 hPa 0,0 l/m 0 min 0 min 0 W/m 16,7 km/h (3 Bft)
18.12.2014 04:36 10,1 C 8,9 C 99 % 1009,1 hPa 0,0 l/m 0 min 0 min 0 W/m 16,7 km/h (3 Bft)
18.12.2014 04:38 10,1 C 8,9 C 100 % 1009,1 hPa 0,0 l/m 0 min 0 min 0 W/m 14,6 km/h (3 Bft)
18.12.2014 04:40 10,1 C 8,9 C 100 % 1009,1 hPa 0,0 l/m 0 min 0 min 0 W/m 20,9 km/h (4 Bft)
18.12.2014 04:42 10,1 C 8,9 C 100 % 1009,1 hPa 0,0 l/m 0 min 0 min 0 W/m 14,6 km/h (3 Bft)
18.12.2014 04:44 10,1 C 8,9 C 100 % 1009,1 hPa 0,0 l/m 0 min 0 min 0 W/m 10,5 km/h (2 Bft)
18.12.2014 04:46 10,2 C 8,9 C 100 % 1009,1 hPa 0,0 l/m 0 min 0 min 0 W/m 18,8 km/h (3 Bft)
18.12.2014 04:48 10,2 C 8,9 C 100 % 1009,1 hPa 0,0 l/m 0 min 0 min 0 W/m 23,0 km/h (4 Bft)
18.12.2014 04:50 10,1 C 8,9 C 100 % 1009,1 hPa 0,0 l/m 0 min 0 min 0 W/m 20,9 km/h (4 Bft)
18.12.2014 04:52 10,2 C 8,9 C 100 % 1009,2 hPa 0,0 l/m 0 min 0 min 0 W/m 16,7 km/h (3 Bft)
18.12.2014 04:54 10,2 C 8,9 C 100 % 1009,1 hPa 0,0 l/m 0 min 0 min 0 W/m 14,6 km/h (3 Bft)
18.12.2014 04:56 10,2 C 8,9 C 100 % 1009,0 hPa 0,0 l/m 0 min 0 min 0 W/m 12,6 km/h (3 Bft)
18.12.2014 04:58 10,2 C 8,9 C 100 % 1009,1 hPa 0,0 l/m 0 min 0 min 0 W/m 14,6 km/h (3 Bft)
18.12.2014 05:00 10,2 C 8,9 C 100 % 1009,0 hPa 0,0 l/m 0 min 0 min 0 W/m 20,9 km/h (4 Bft)
18.12.2014 05:02 10,2 C 8,9 C 100 % 1009,1 hPa 0,0 l/m 0 min 0 min 0 W/m 16,7 km/h (3 Bft)
18.12.2014 05:04 10,2 C 8,9 C 100 % 1009,0 hPa 0,0 l/m 0 min 0 min 0 W/m 14,6 km/h (3 Bft)
18.12.2014 05:06 10,2 C 8,9 C 100 % 1009,0 hPa 0,0 l/m 0 min 0 min 0 W/m 16,7 km/h (3 Bft)
18.12.2014 05:08 10,2 C 8,9 C 100 % 1009,0 hPa 0,0 l/m 0 min 0 min 0 W/m 18,8 km/h (3 Bft)
18.12.2014 05:10 10,2 C 8,9 C 99 % 1009,1 hPa 0,0 l/m 0 min 0 min 0 W/m 14,6 km/h (3 Bft)
18.12.2014 05:12 10,2 C 8,9 C 99 % 1009,0 hPa 0,0 l/m 0 min 0 min 0 W/m 16,7 km/h (3 Bft)
18.12.2014 05:14 10,2 C 8,9 C 99 % 1009,1 hPa 0,0 l/m 0 min 0 min 0 W/m 20,9 km/h (4 Bft)
18.12.2014 05:16 10,2 C 8,9 C 99 % 1009,1 hPa 0,0 l/m 0 min 0 min 0 W/m 16,7 km/h (3 Bft)
18.12.2014 05:18 10,2 C 8,9 C 99 % 1009,1 hPa 0,0 l/m 0 min 0 min 0 W/m 14,6 km/h (3 Bft)
18.12.2014 05:20 10,2 C 8,9 C 99 % 1009,0 hPa 0,0 l/m 0 min 0 min 0 W/m 16,7 km/h (3 Bft)
18.12.2014 05:22 10,2 C 8,9 C 99 % 1009,1 hPa 0,0 l/m 0 min 0 min 0 W/m 14,6 km/h (3 Bft)
18.12.2014 05:24 10,2 C 8,9 C 99 % 1009,1 hPa 0,0 l/m 0 min 0 min 0 W/m 16,7 km/h (3 Bft)
18.12.2014 05:26 10,2 C 8,9 C 99 % 1009,1 hPa 0,0 l/m 0 min 0 min 0 W/m 12,6 km/h (3 Bft)
18.12.2014 05:28 10,2 C 8,9 C 99 % 1009,1 hPa 0,0 l/m 0 min 0 min 0 W/m 23,0 km/h (4 Bft)
18.12.2014 05:30 10,2 C 8,9 C 99 % 1009,1 hPa 0,0 l/m 0 min 0 min 0 W/m 14,6 km/h (3 Bft)
18.12.2014 05:32 10,2 C 8,9 C 99 % 1009,0 hPa 0,0 l/m 0 min 0 min 0 W/m 12,6 km/h (3 Bft)
18.12.2014 05:34 10,2 C 8,9 C 99 % 1009,1 hPa 0,0 l/m 0 min 0 min 0 W/m 25,1 km/h (4 Bft)
18.12.2014 05:36 10,2 C 8,9 C 99 % 1009,0 hPa 0,0 l/m 0 min 0 min 0 W/m 23,0 km/h (4 Bft)
18.12.2014 05:38 10,2 C 8,9 C 99 % 1009,0 hPa 0,0 l/m 0 min 0 min 0 W/m 14,6 km/h (3 Bft)
18.12.2014 05:40 10,2 C 8,9 C 99 % 1009,0 hPa 0,0 l/m 0 min 0 min 0 W/m 25,1 km/h (4 Bft)
18.12.2014 05:42 10,2 C 8,9 C 99 % 1009,0 hPa 0,0 l/m 0 min 0 min 0 W/m 25,1 km/h (4 Bft)
18.12.2014 05:44 10,2 C 8,9 C 99 % 1008,9 hPa 0,0 l/m 0 min 0 min 0 W/m 18,8 km/h (3 Bft)
18.12.2014 05:46 10,2 C 8,9 C 99 % 1009,0 hPa 0,0 l/m 0 min 2 min 0 W/m 14,6 km/h (3 Bft)
18.12.2014 05:48 10,2 C 8,9 C 99 % 1009,0 hPa 0,0 l/m 0 min 0 min 0 W/m 16,7 km/h (3 Bft)
18.12.2014 05:50 10,2 C 8,9 C 99 % 1009,0 hPa 0,0 l/m 0 min 0 min 0 W/m 18,8 km/h (3 Bft)
18.12.2014 05:52 10,2 C 8,9 C 99 % 1009,0 hPa 0,0 l/m 0 min 0 min 0 W/m 12,6 km/h (3 Bft)
18.12.2014 05:54 10,2 C 8,9 C 99 % 1009,0 hPa 0,0 l/m 0 min 0 min 0 W/m 18,8 km/h (3 Bft)
18.12.2014 05:56 10,2 C 8,9 C 99 % 1009,0 hPa 0,0 l/m 0 min 0 min 0 W/m 16,7 km/h (3 Bft)
18.12.2014 05:58 10,2 C 8,9 C 99 % 1009,1 hPa 0,0 l/m 0 min 0 min 0 W/m 23,0 km/h (4 Bft)
18.12.2014 06:00 10,3 C 8,9 C 99 % 1009,0 hPa 0,0 l/m 0 min 0 min 0 W/m 20,9 km/h (4 Bft)
18.12.2014 06:02 10,3 C 8,9 C 99 % 1009,0 hPa 0,0 l/m 0 min 0 min 0 W/m 14,6 km/h (3 Bft)
18.12.2014 06:06 10,3 C 8,9 C 99 % 1009,0 hPa 0,0 l/m 0 min 0 min 0 W/m 25,1 km/h (4 Bft)
18.12.2014 06:08 10,3 C 8,9 C 99 % 1009,0 hPa 0,0 l/m 0 min 0 min 0 W/m 16,7 km/h (3 Bft)
18.12.2014 06:10 10,3 C 8,9 C 99 % 1009,0 hPa 0,0 l/m 0 min 0 min 0 W/m 29,3 km/h (5 Bft)
18.12.2014 06:12 10,3 C 8,9 C 99 % 1009,1 hPa 0,0 l/m 0 min 0 min 0 W/m 20,9 km/h (4 Bft)
18.12.2014 06:14 10,3 C 8,9 C 99 % 1009,0 hPa 0,0 l/m 0 min 0 min 0 W/m 14,6 km/h (3 Bft)
18.12.2014 06:16 10,3 C 8,9 C 99 % 1009,0 hPa 0,0 l/m 0 min 0 min 0 W/m 12,6 km/h (3 Bft)
18.12.2014 06:18 10,3 C 8,9 C 99 % 1009,1 hPa 0,0 l/m 0 min 0 min 0 W/m 20,9 km/h (4 Bft)
18.12.2014 06:20 10,3 C 8,9 C 99 % 1009,0 hPa 0,0 l/m 0 min 2 min 0 W/m 16,7 km/h (3 Bft)
18.12.2014 06:22 10,3 C 8,9 C 99 % 1009,0 hPa 0,0 l/m 0 min 2 min 0 W/m 16,7 km/h (3 Bft)
18.12.2014 06:24 10,3 C 8,9 C 99 % 1009,0 hPa 0,0 l/m 0 min 2 min 0 W/m 12,6 km/h (3 Bft)
18.12.2014 06:26 10,3 C 8,9 C 99 % 1009,0 hPa 0,0 l/m 0 min 2 min 0 W/m 18,8 km/h (3 Bft)
18.12.2014 06:28 10,3 C 8,9 C 99 % 1009,0 hPa 0,0 l/m 0 min 2 min 0 W/m 14,6 km/h (3 Bft)
18.12.2014 06:30 10,3 C 8,9 C 99 % 1009,1 hPa 0,0 l/m 0 min 2 min 0 W/m 14,6 km/h (3 Bft)
18.12.2014 06:32 10,3 C 8,9 C 99 % 1009,1 hPa 0,0 l/m 0 min 2 min 0 W/m 14,6 km/h (3 Bft)
18.12.2014 06:34 10,3 C 8,9 C 99 % 1009,1 hPa 0,0 l/m 0 min 2 min 0 W/m 23,0 km/h (4 Bft)
18.12.2014 06:37 10,3 C 8,9 C 99 % 1009,1 hPa 0,0 l/m 0 min 2 min 0 W/m 16,7 km/h (3 Bft)
18.12.2014 06:38 10,3 C 8,9 C 99 % 1009,1 hPa 0,0 l/m 0 min 1 min 0 W/m 16,7 km/h (3 Bft)
18.12.2014 06:40 10,3 C 8,9 C 99 % 1009,1 hPa 0,2 l/m 0 min 2 min 0 W/m 23,0 km/h (4 Bft)
18.12.2014 06:42 10,4 C 8,9 C 99 % 1009,2 hPa 0,0 l/m 0 min 0 min 0 W/m 18,8 km/h (3 Bft)
18.12.2014 06:44 10,4 C 8,9 C 99 % 1009,2 hPa 0,0 l/m 0 min 0 min 0 W/m 6,3 km/h (2 Bft)
18.12.2014 06:46 10,4 C 8,9 C 99 % 1009,1 hPa 0,0 l/m 0 min 0 min 0 W/m 18,8 km/h (3 Bft)
18.12.2014 06:48 10,4 C 8,9 C 99 % 1009,1 hPa 0,0 l/m 0 min 0 min 0 W/m 14,6 km/h (3 Bft)
18.12.2014 06:50 10,4 C 8,9 C 99 % 1009,2 hPa 0,0 l/m 0 min 0 min 0 W/m 10,5 km/h (2 Bft)
18.12.2014 06:52 10,4 C 8,9 C 99 % 1009,2 hPa 0,0 l/m 0 min 0 min 0 W/m 23,0 km/h (4 Bft)
18.12.2014 06:54 10,4 C 8,9 C 99 % 1009,2 hPa 0,0 l/m 0 min 0 min 0 W/m 16,7 km/h (3 Bft)
18.12.2014 06:56 10,4 C 8,9 C 99 % 1009,2 hPa 0,0 l/m 0 min 0 min 0 W/m 12,6 km/h (3 Bft)
18.12.2014 06:58 10,4 C 8,9 C 99 % 1009,3 hPa 0,0 l/m 0 min 0 min 0 W/m 18,8 km/h (3 Bft)
18.12.2014 07:00 10,4 C 8,9 C 99 % 1009,3 hPa 0,0 l/m 0 min 0 min 0 W/m 18,8 km/h (3 Bft)
18.12.2014 07:02 10,4 C 8,9 C 99 % 1009,4 hPa 0,0 l/m 0 min 0 min 0 W/m 16,7 km/h (3 Bft)
18.12.2014 07:04 10,4 C 8,9 C 99 % 1009,4 hPa 0,0 l/m 0 min 0 min 0 W/m 12,6 km/h (3 Bft)
18.12.2014 07:06 10,4 C 8,9 C 99 % 1009,4 hPa 0,0 l/m 0 min 0 min 0 W/m 20,9 km/h (4 Bft)
18.12.2014 07:08 10,4 C 8,9 C 99 % 1009,4 hPa 0,0 l/m 0 min 0 min 0 W/m 16,7 km/h (3 Bft)
18.12.2014 07:10 10,4 C 8,9 C 99 % 1009,4 hPa 0,0 l/m 0 min 0 min 0 W/m 14,6 km/h (3 Bft)
18.12.2014 07:12 10,4 C 8,9 C 99 % 1009,4 hPa 0,0 l/m 0 min 0 min 0 W/m 20,9 km/h (4 Bft)
18.12.2014 07:14 10,4 C 8,9 C 99 % 1009,4 hPa 0,0 l/m 0 min 2 min 0 W/m 20,9 km/h (4 Bft)
18.12.2014 07:16 10,4 C 8,9 C 99 % 1009,5 hPa 0,0 l/m 0 min 2 min 0 W/m 16,7 km/h (3 Bft)
18.12.2014 07:18 10,4 C 8,9 C 99 % 1009,5 hPa 0,0 l/m 0 min 0 min 0 W/m 20,9 km/h (4 Bft)
18.12.2014 07:20 10,4 C 8,9 C 99 % 1009,4 hPa 0,0 l/m 0 min 0 min 0 W/m 18,8 km/h (3 Bft)
18.12.2014 07:22 10,4 C 8,9 C 99 % 1009,5 hPa 0,0 l/m 0 min 0 min 0 W/m 23,0 km/h (4 Bft)
18.12.2014 07:24 10,4 C 8,9 C 99 % 1009,5 hPa 0,0 l/m 0 min 0 min 0 W/m 12,6 km/h (3 Bft)
18.12.2014 07:26 10,4 C 8,9 C 99 % 1009,4 hPa 0,0 l/m 0 min 0 min 0 W/m 16,7 km/h (3 Bft)
18.12.2014 07:28 10,5 C 8,9 C 99 % 1009,4 hPa 0,0 l/m 0 min 0 min 0 W/m 14,6 km/h (3 Bft)
18.12.2014 07:30 10,4 C 8,9 C 99 % 1009,3 hPa 0,0 l/m 0 min 0 min 0 W/m 12,6 km/h (3 Bft)
18.12.2014 07:32 10,5 C 8,9 C 99 % 1009,3 hPa 0,0 l/m 0 min 0 min 0 W/m 18,8 km/h (3 Bft)
18.12.2014 07:34 10,4 C 8,9 C 99 % 1009,3 hPa 0,0 l/m 0 min 0 min 0 W/m 16,7 km/h (3 Bft)
18.12.2014 07:36 10,5 C 8,9 C 99 % 1009,3 hPa 0,0 l/m 0 min 0 min 0 W/m 20,9 km/h (4 Bft)
18.12.2014 07:38 10,4 C 8,9 C 99 % 1009,3 hPa 0,0 l/m 0 min 0 min 0 W/m 12,6 km/h (3 Bft)
18.12.2014 07:40 10,5 C 8,9 C 99 % 1009,2 hPa 0,0 l/m 0 min 0 min 0 W/m 14,6 km/h (3 Bft)
18.12.2014 07:42 10,5 C 8,9 C 99 % 1009,3 hPa 0,0 l/m 0 min 0 min 0 W/m 20,9 km/h (4 Bft)
18.12.2014 07:44 10,5 C 8,9 C 99 % 1009,4 hPa 0,0 l/m 0 min 0 min 0 W/m 20,9 km/h (4 Bft)
18.12.2014 07:46 10,5 C 8,9 C 99 % 1009,4 hPa 0,0 l/m 0 min 0 min 0 W/m 20,9 km/h (4 Bft)
18.12.2014 07:48 10,5 C 8,9 C 99 % 1009,4 hPa 0,0 l/m 0 min 0 min 0 W/m 23,0 km/h (4 Bft)
18.12.2014 07:50 10,5 C 8,9 C 99 % 1009,3 hPa 0,0 l/m 0 min 0 min 0 W/m 23,0 km/h (4 Bft)
18.12.2014 07:52 10,5 C 8,9 C 99 % 1009,3 hPa 0,0 l/m 0 min 0 min 0 W/m 16,7 km/h (3 Bft)
18.12.2014 07:54 10,5 C 8,9 C 99 % 1009,2 hPa 0,0 l/m 0 min 0 min 0 W/m 20,9 km/h (4 Bft)
18.12.2014 07:56 10,5 C 8,9 C 99 % 1009,2 hPa 0,0 l/m 0 min 0 min 0 W/m 20,9 km/h (4 Bft)
18.12.2014 07:58 10,5 C 8,9 C 99 % 1009,3 hPa 0,0 l/m 0 min 0 min 0 W/m 23,0 km/h (4 Bft)
18.12.2014 08:00 10,5 C 8,9 C 99 % 1009,3 hPa 0,0 l/m 0 min 0 min 0 W/m 16,7 km/h (3 Bft)
18.12.2014 08:02 10,5 C 8,9 C 99 % 1009,4 hPa 0,0 l/m 0 min 0 min 0 W/m 20,9 km/h (4 Bft)
18.12.2014 08:04 10,5 C 8,9 C 99 % 1009,4 hPa 0,0 l/m 0 min 0 min 0 W/m 20,9 km/h (4 Bft)
18.12.2014 08:06 10,5 C 8,9 C 99 % 1009,3 hPa 0,0 l/m 0 min 0 min 0 W/m 18,8 km/h (3 Bft)
18.12.2014 08:08 10,6 C 8,9 C 99 % 1009,4 hPa 0,0 l/m 0 min 0 min 0 W/m 14,6 km/h (3 Bft)
18.12.2014 08:10 10,5 C 8,9 C 99 % 1009,5 hPa 0,0 l/m 0 min 0 min 0 W/m 18,8 km/h (3 Bft)
18.12.2014 08:12 10,5 C 8,9 C 99 % 1009,5 hPa 0,0 l/m 0 min 0 min 0 W/m 18,8 km/h (3 Bft)
18.12.2014 08:14 10,5 C 8,9 C 99 % 1009,6 hPa 0,0 l/m 0 min 0 min 0 W/m 18,8 km/h (3 Bft)
18.12.2014 08:16 10,5 C 8,9 C 99 % 1009,6 hPa 0,0 l/m 0 min 0 min 0 W/m 18,8 km/h (3 Bft)
18.12.2014 08:18 10,5 C 8,9 C 99 % 1009,7 hPa 0,0 l/m 0 min 0 min 0 W/m 18,8 km/h (3 Bft)
18.12.2014 08:20 10,5 C 8,9 C 99 % 1009,7 hPa 0,0 l/m 0 min 0 min 0 W/m 14,6 km/h (3 Bft)
18.12.2014 08:22 10,5 C 8,9 C 99 % 1009,7 hPa 0,0 l/m 0 min 0 min 0 W/m 14,6 km/h (3 Bft)
18.12.2014 08:24 10,5 C 8,9 C 99 % 1009,7 hPa 0,0 l/m 0 min 0 min 0 W/m 12,6 km/h (3 Bft)
18.12.2014 08:26 10,5 C 8,9 C 99 % 1009,7 hPa 0,0 l/m 0 min 0 min 0 W/m 20,9 km/h (4 Bft)
18.12.2014 08:28 10,5 C 8,9 C 99 % 1009,7 hPa 0,0 l/m 0 min 0 min 0 W/m 16,7 km/h (3 Bft)
18.12.2014 08:30 10,5 C 8,9 C 99 % 1009,6 hPa 0,0 l/m 0 min 0 min 0 W/m 14,6 km/h (3 Bft)
18.12.2014 08:32 10,5 C 8,9 C 99 % 1009,6 hPa 0,0 l/m 0 min 0 min 0 W/m 14,6 km/h (3 Bft)
18.12.2014 08:34 10,5 C 8,9 C 99 % 1009,5 hPa 0,0 l/m 0 min 0 min 0 W/m 20,9 km/h (4 Bft)
18.12.2014 08:36 10,6 C 8,9 C 99 % 1009,5 hPa 0,0 l/m 0 min 0 min 0 W/m 14,6 km/h (3 Bft)
18.12.2014 08:38 10,6 C 8,9 C 99 % 1009,5 hPa 0,0 l/m 0 min 0 min 0 W/m 14,6 km/h (3 Bft)
18.12.2014 08:40 10,6 C 8,9 C 99 % 1009,4 hPa 0,0 l/m 0 min 0 min 0 W/m 12,6 km/h (3 Bft)
18.12.2014 08:42 10,6 C 8,9 C 99 % 1009,4 hPa 0,0 l/m 0 min 0 min 2 W/m 16,7 km/h (3 Bft)
18.12.2014 08:44 10,6 C 8,9 C 99 % 1009,4 hPa 0,0 l/m 0 min 0 min 5 W/m 14,6 km/h (3 Bft)
18.12.2014 08:46 10,6 C 8,9 C 99 % 1009,4 hPa 0,0 l/m 0 min 0 min 5 W/m 20,9 km/h (4 Bft)
18.12.2014 08:48 10,6 C 8,9 C 99 % 1009,4 hPa 0,0 l/m 0 min 0 min 7 W/m 14,6 km/h (3 Bft)
18.12.2014 08:50 10,6 C 8,9 C 99 % 1009,5 hPa 0,0 l/m 0 min 0 min 7 W/m 18,8 km/h (3 Bft)
18.12.2014 08:52 10,6 C 8,9 C 99 % 1009,6 hPa 0,0 l/m 0 min 0 min 7 W/m 16,7 km/h (3 Bft)
18.12.2014 08:54 10,6 C 9,4 C 99 % 1009,6 hPa 0,0 l/m 0 min 0 min 7 W/m 20,9 km/h (4 Bft)
18.12.2014 08:56 10,6 C 8,9 C 99 % 1009,7 hPa 0,0 l/m 0 min 0 min 7 W/m 16,7 km/h (3 Bft)
18.12.2014 08:58 10,6 C 9,4 C 99 % 1009,8 hPa 0,0 l/m 0 min 0 min 7 W/m 16,7 km/h (3 Bft)
18.12.2014 09:00 10,6 C 9,4 C 99 % 1009,8 hPa 0,0 l/m 0 min 0 min 6 W/m 14,6 km/h (3 Bft)
18.12.2014 09:02 10,6 C 9,4 C 99 % 1009,8 hPa 0,0 l/m 0 min 2 min 5 W/m 18,8 km/h (3 Bft)
18.12.2014 09:04 10,6 C 8,9 C 99 % 1009,8 hPa 0,0 l/m 0 min 2 min 7 W/m 16,7 km/h (3 Bft)
18.12.2014 09:06 10,6 C 9,4 C 99 % 1009,8 hPa 0,0 l/m 0 min 2 min 7 W/m 12,6 km/h (3 Bft)
18.12.2014 09:08 10,6 C 9,4 C 99 % 1009,8 hPa 0,0 l/m 0 min 2 min 7 W/m 12,6 km/h (3 Bft)
18.12.2014 09:10 10,6 C 9,4 C 99 % 1009,8 hPa 0,0 l/m 0 min 2 min 7 W/m 12,6 km/h (3 Bft)
18.12.2014 09:12 10,6 C 9,4 C 99 % 1009,8 hPa 0,0 l/m 0 min 0 min 7 W/m 16,7 km/h (3 Bft)
18.12.2014 09:14 10,6 C 9,4 C 99 % 1009,9 hPa 0,0 l/m 0 min 0 min 10 W/m 18,8 km/h (3 Bft)
18.12.2014 09:16 10,6 C 9,4 C 99 % 1009,8 hPa 0,0 l/m 0 min 0 min 10 W/m 14,6 km/h (3 Bft)
18.12.2014 09:18 10,6 C 9,4 C 99 % 1009,8 hPa 0,0 l/m 0 min 0 min 10 W/m 10,5 km/h (2 Bft)
18.12.2014 09:20 10,6 C 9,4 C 99 % 1009,8 hPa 0,0 l/m 0 min 0 min 12 W/m 12,6 km/h (3 Bft)
18.12.2014 09:22 10,6 C 9,4 C 99 % 1009,8 hPa 0,0 l/m 0 min 0 min 12 W/m 16,7 km/h (3 Bft)
18.12.2014 09:24 10,6 C 9,4 C 99 % 1009,8 hPa 0,0 l/m 0 min 0 min 11 W/m 18,8 km/h (3 Bft)
18.12.2014 09:26 10,7 C 9,4 C 99 % 1009,8 hPa 0,0 l/m 0 min 0 min 11 W/m 10,5 km/h (2 Bft)
18.12.2014 09:28 10,7 C 9,4 C 99 % 1009,8 hPa 0,0 l/m 0 min 0 min 13 W/m 14,6 km/h (3 Bft)
18.12.2014 09:30 10,7 C 9,4 C 99 % 1009,8 hPa 0,0 l/m 0 min 0 min 17 W/m 14,6 km/h (3 Bft)
18.12.2014 09:32 10,7 C 9,4 C 99 % 1009,8 hPa 0,0 l/m 0 min 0 min 15 W/m 12,6 km/h (3 Bft)
18.12.2014 09:34 10,7 C 9,4 C 99 % 1009,9 hPa 0,0 l/m 0 min 0 min 12 W/m 12,6 km/h (3 Bft)
18.12.2014 09:36 10,7 C 9,4 C 99 % 1009,8 hPa 0,0 l/m 0 min 0 min 12 W/m 12,6 km/h (3 Bft)
18.12.2014 09:38 10,7 C 9,4 C 99 % 1009,9 hPa 0,0 l/m 0 min 0 min 12 W/m 12,6 km/h (3 Bft)
18.12.2014 09:40 10,7 C 9,4 C 99 % 1010,0 hPa 0,0 l/m 0 min 0 min 11 W/m 16,7 km/h (3 Bft)
18.12.2014 09:42 10,7 C 9,4 C 99 % 1010,0 hPa 0,0 l/m 0 min 0 min 11 W/m 14,6 km/h (3 Bft)
18.12.2014 09:44 10,7 C 9,4 C 99 % 1010,0 hPa 0,0 l/m 0 min 0 min 11 W/m 14,6 km/h (3 Bft)
18.12.2014 09:46 10,7 C 9,4 C 99 % 1010,1 hPa 0,0 l/m 0 min 0 min 14 W/m 16,7 km/h (3 Bft)
18.12.2014 09:48 10,7 C 9,4 C 99 % 1010,2 hPa 0,0 l/m 0 min 0 min 13 W/m 12,6 km/h (3 Bft)
18.12.2014 09:50 10,7 C 9,4 C 99 % 1010,1 hPa 0,0 l/m 0 min 0 min 13 W/m 18,8 km/h (3 Bft)
18.12.2014 09:52 10,8 C 9,4 C 99 % 1010,2 hPa 0,0 l/m 0 min 0 min 15 W/m 16,7 km/h (3 Bft)
18.12.2014 09:54 10,8 C 9,4 C 99 % 1010,2 hPa 0,0 l/m 0 min 0 min 18 W/m 14,6 km/h (3 Bft)
18.12.2014 09:56 10,8 C 9,4 C 99 % 1010,2 hPa 0,0 l/m 0 min 0 min 19 W/m 12,6 km/h (3 Bft)
18.12.2014 09:58 10,8 C 9,4 C 99 % 1010,3 hPa 0,0 l/m 0 min 2 min 18 W/m 14,6 km/h (3 Bft)
18.12.2014 10:00 10,8 C 9,4 C 99 % 1010,3 hPa 0,0 l/m 0 min 0 min 17 W/m 14,6 km/h (3 Bft)
18.12.2014 10:02 10,8 C 9,4 C 99 % 1010,3 hPa 0,0 l/m 0 min 0 min 13 W/m 16,7 km/h (3 Bft)
18.12.2014 10:04 10,8 C 9,4 C 99 % 1010,3 hPa 0,0 l/m 0 min 0 min 16 W/m 25,1 km/h (4 Bft)
18.12.2014 10:06 10,8 C 9,4 C 99 % 1010,3 hPa 0,0 l/m 0 min 0 min 19 W/m 12,6 km/h (3 Bft)
18.12.2014 10:08 10,8 C 9,4 C 99 % 1010,3 hPa 0,0 l/m 0 min 0 min 24 W/m 18,8 km/h (3 Bft)
18.12.2014 10:10 10,8 C 9,4 C 99 % 1010,2 hPa 0,0 l/m 0 min 0 min 22 W/m 18,8 km/h (3 Bft)
18.12.2014 10:12 10,8 C 9,4 C 100 % 1010,1 hPa 0,0 l/m 0 min 0 min 18 W/m 18,8 km/h (3 Bft)
18.12.2014 10:14 10,9 C 9,4 C 100 % 1010,1 hPa 0,0 l/m 0 min 0 min 18 W/m 14,6 km/h (3 Bft)
18.12.2014 10:16 10,9 C 9,4 C 100 % 1010,0 hPa 0,0 l/m 0 min 2 min 21 W/m 12,6 km/h (3 Bft)
18.12.2014 10:18 10,9 C 9,4 C 100 % 1010,1 hPa 0,0 l/m 0 min 0 min 25 W/m 18,8 km/h (3 Bft)
18.12.2014 10:20 10,9 C 9,4 C 100 % 1010,0 hPa 0,0 l/m 0 min 0 min 26 W/m 20,9 km/h (4 Bft)
18.12.2014 10:22 10,9 C 9,4 C 100 % 1010,1 hPa 0,0 l/m 0 min 0 min 31 W/m 16,7 km/h (3 Bft)
18.12.2014 10:24 10,9 C 9,4 C 100 % 1010,1 hPa 0,0 l/m 0 min 0 min 24 W/m 20,9 km/h (4 Bft)
18.12.2014 10:26 10,9 C 9,4 C 100 % 1010,0 hPa 0,0 l/m 0 min 0 min 20 W/m 18,8 km/h (3 Bft)
18.12.2014 10:28 10,9 C 9,4 C 100 % 1010,1 hPa 0,0 l/m 0 min 0 min 22 W/m 25,1 km/h (4 Bft)
18.12.2014 10:30 10,9 C 9,4 C 100 % 1010,1 hPa 0,0 l/m 0 min 0 min 24 W/m 20,9 km/h (4 Bft)
18.12.2014 10:32 10,9 C 9,4 C 99 % 1010,2 hPa 0,0 l/m 0 min 0 min 30 W/m 25,1 km/h (4 Bft)
18.12.2014 10:34 11,0 C 9,4 C 100 % 1010,2 hPa 0,0 l/m 0 min 0 min 42 W/m 23,0 km/h (4 Bft)
18.12.2014 10:36 11,0 C 10,0 C 100 % 1010,2 hPa 0,0 l/m 0 min 0 min 46 W/m 25,1 km/h (4 Bft)
18.12.2014 10:38 11,1 C 10,0 C 99 % 1010,2 hPa 0,0 l/m 0 min 0 min 45 W/m 27,2 km/h (4 Bft)
18.12.2014 10:40 11,1 C 10,0 C 99 % 1010,3 hPa 0,0 l/m 0 min 0 min 40 W/m 23,0 km/h (4 Bft)
18.12.2014 10:42 11,1 C 10,0 C 99 % 1010,3 hPa 0,0 l/m 0 min 0 min 52 W/m 23,0 km/h (4 Bft)
18.12.2014 10:44 11,1 C 10,0 C 99 % 1010,1 hPa 0,0 l/m 0 min 0 min 54 W/m 27,2 km/h (4 Bft)
18.12.2014 10:46 11,1 C 10,0 C 99 % 1010,1 hPa 0,0 l/m 0 min 0 min 46 W/m 20,9 km/h (4 Bft)
18.12.2014 10:48 11,1 C 10,0 C 99 % 1010,2 hPa 0,0 l/m 0 min 0 min 43 W/m 29,3 km/h (5 Bft)
18.12.2014 10:50 11,2 C 10,0 C 99 % 1010,2 hPa 0,0 l/m 0 min 0 min 49 W/m 23,0 km/h (4 Bft)
18.12.2014 10:52 11,2 C 10,0 C 99 % 1010,3 hPa 0,0 l/m 0 min 0 min 55 W/m 20,9 km/h (4 Bft)
18.12.2014 10:54 11,2 C 10,0 C 100 % 1010,3 hPa 0,0 l/m 0 min 0 min 69 W/m 27,2 km/h (4 Bft)
18.12.2014 10:56 11,2 C 10,0 C 100 % 1010,4 hPa 0,0 l/m 0 min 0 min 72 W/m 27,2 km/h (4 Bft)
18.12.2014 10:58 11,3 C 10,0 C 100 % 1010,4 hPa 0,0 l/m 0 min 0 min 65 W/m 31,4 km/h (5 Bft)
18.12.2014 11:00 11,3 C 10,0 C 100 % 1010,3 hPa 0,0 l/m 0 min 0 min 66 W/m 20,9 km/h (4 Bft)
18.12.2014 11:02 11,3 C 10,0 C 100 % 1010,3 hPa 0,0 l/m 0 min 0 min 66 W/m 27,2 km/h (4 Bft)
18.12.2014 11:04 11,3 C 10,0 C 100 % 1010,3 hPa 0,0 l/m 0 min 0 min 67 W/m 29,3 km/h (5 Bft)
18.12.2014 11:06 11,3 C 10,0 C 100 % 1010,3 hPa 0,0 l/m 0 min 0 min 67 W/m 18,8 km/h (3 Bft)
18.12.2014 11:08 11,4 C 10,0 C 100 % 1010,2 hPa 0,0 l/m 0 min 0 min 66 W/m 25,1 km/h (4 Bft)
18.12.2014 11:10 11,4 C 10,0 C 100 % 1010,3 hPa 0,0 l/m 0 min 0 min 68 W/m 20,9 km/h (4 Bft)
18.12.2014 11:12 11,4 C 10,6 C 99 % 1010,2 hPa 0,0 l/m 0 min 0 min 79 W/m 18,8 km/h (3 Bft)
18.12.2014 11:14 11,4 C 10,6 C 99 % 1010,1 hPa 0,0 l/m 0 min 0 min 91 W/m 18,8 km/h (3 Bft)
18.12.2014 11:16 11,4 C 10,6 C 99 % 1010,1 hPa 0,0 l/m 0 min 0 min 91 W/m 27,2 km/h (4 Bft)
18.12.2014 11:18 11,4 C 10,6 C 99 % 1010,1 hPa 0,0 l/m 0 min 0 min 81 W/m 27,2 km/h (4 Bft)
18.12.2014 11:20 11,5 C 10,6 C 99 % 1010,1 hPa 0,0 l/m 0 min 0 min 80 W/m 27,2 km/h (4 Bft)
18.12.2014 11:22 11,5 C 10,6 C 99 % 1010,1 hPa 0,0 l/m 0 min 0 min 79 W/m 18,8 km/h (3 Bft)
18.12.2014 11:24 11,6 C 10,6 C 99 % 1010,1 hPa 0,0 l/m 0 min 0 min 94 W/m 31,4 km/h (5 Bft)
18.12.2014 11:26 11,6 C 10,6 C 99 % 1010,2 hPa 0,0 l/m 0 min 0 min 80 W/m 20,9 km/h (4 Bft)
18.12.2014 11:28 11,6 C 10,6 C 100 % 1010,2 hPa 0,0 l/m 0 min 0 min 66 W/m 25,1 km/h (4 Bft)
18.12.2014 11:30 11,6 C 10,6 C 100 % 1010,1 hPa 0,0 l/m 0 min 0 min 73 W/m 29,3 km/h (5 Bft)
18.12.2014 11:32 11,6 C 10,6 C 100 % 1010,2 hPa 0,0 l/m 0 min 0 min 80 W/m 31,4 km/h (5 Bft)
18.12.2014 11:34 11,7 C 10,6 C 100 % 1010,2 hPa 0,0 l/m 0 min 0 min 71 W/m 25,1 km/h (4 Bft)
18.12.2014 11:36 11,7 C 10,6 C 100 % 1010,3 hPa 0,0 l/m 0 min 0 min 62 W/m 29,3 km/h (5 Bft)
18.12.2014 11:38 11,6 C 10,6 C 100 % 1010,2 hPa 0,0 l/m 0 min 0 min 49 W/m 31,4 km/h (5 Bft)
18.12.2014 11:40 11,7 C 10,6 C 100 % 1010,1 hPa 0,0 l/m 0 min 0 min 48 W/m 20,9 km/h (4 Bft)
18.12.2014 11:42 11,7 C 10,6 C 100 % 1010,1 hPa 0,0 l/m 0 min 0 min 44 W/m 29,3 km/h (5 Bft)
18.12.2014 11:44 11,7 C 10,6 C 100 % 1010,1 hPa 0,0 l/m 0 min 0 min 38 W/m 29,3 km/h (5 Bft)
18.12.2014 11:46 11,7 C 10,6 C 100 % 1010,1 hPa 0,0 l/m 0 min 0 min 30 W/m 25,1 km/h (4 Bft)
18.12.2014 11:48 11,7 C 10,6 C 100 % 1010,3 hPa 0,0 l/m 0 min 0 min 35 W/m 29,3 km/h (5 Bft)
18.12.2014 11:50 11,7 C 10,6 C 100 % 1010,3 hPa 0,0 l/m 0 min 0 min 44 W/m 29,3 km/h (5 Bft)
18.12.2014 11:52 11,7 C 10,6 C 100 % 1010,3 hPa 0,0 l/m 0 min 0 min 49 W/m 31,4 km/h (5 Bft)
18.12.2014 11:54 11,7 C 10,6 C 100 % 1010,2 hPa 0,0 l/m 0 min 0 min 45 W/m 23,0 km/h (4 Bft)
18.12.2014 11:56 11,7 C 10,6 C 99 % 1010,3 hPa 0,0 l/m 0 min 0 min 45 W/m 27,2 km/h (4 Bft)
18.12.2014 11:58 11,7 C 10,6 C 99 % 1010,3 hPa 0,0 l/m 0 min 0 min 46 W/m 29,3 km/h (5 Bft)
18.12.2014 12:00 11,7 C 10,6 C 99 % 1010,3 hPa 0,0 l/m 0 min 0 min 56 W/m 31,4 km/h (5 Bft)
18.12.2014 12:03 11,8 C 10,6 C 99 % 1010,3 hPa 0,0 l/m 0 min 0 min 40 W/m 27,2 km/h (4 Bft)
18.12.2014 12:06 11,8 C 10,6 C 99 % 1010,3 hPa 0,0 l/m 0 min 0 min 44 W/m 29,3 km/h (5 Bft)
18.12.2014 12:08 11,8 C 10,6 C 99 % 1010,2 hPa 0,0 l/m 0 min 0 min 53 W/m 29,3 km/h (5 Bft)
18.12.2014 12:10 11,8 C 10,6 C 99 % 1010,2 hPa 0,0 l/m 0 min 0 min 67 W/m 33,5 km/h (5 Bft)
18.12.2014 12:12 11,8 C 10,6 C 99 % 1010,1 hPa 0,0 l/m 0 min 0 min 65 W/m 29,3 km/h (5 Bft)
18.12.2014 12:14 11,8 C 10,6 C 99 % 1010,2 hPa 0,0 l/m 0 min 0 min 76 W/m 29,3 km/h (5 Bft)
18.12.2014 12:16 11,9 C 10,6 C 99 % 1010,2 hPa 0,0 l/m 0 min 0 min 70 W/m 25,1 km/h (4 Bft)
18.12.2014 12:18 11,9 C 10,6 C 99 % 1010,1 hPa 0,0 l/m 0 min 0 min 76 W/m 18,8 km/h (3 Bft)
18.12.2014 12:20 11,9 C 10,6 C 99 % 1010,1 hPa 0,0 l/m 0 min 0 min 69 W/m 29,3 km/h (5 Bft)
18.12.2014 12:22 11,9 C 11,1 C 99 % 1010,1 hPa 0,0 l/m 0 min 0 min 69 W/m 33,5 km/h (5 Bft)
18.12.2014 12:24 11,9 C 10,6 C 99 % 1010,1 hPa 0,0 l/m 0 min 0 min 67 W/m 25,1 km/h (4 Bft)
18.12.2014 12:26 11,9 C 10,6 C 99 % 1010,1 hPa 0,0 l/m 0 min 0 min 62 W/m 29,3 km/h (5 Bft)
18.12.2014 12:28 11,9 C 10,6 C 99 % 1010,1 hPa 0,2 l/m 0 min 0 min 46 W/m 39,7 km/h (6 Bft)
18.12.2014 12:30 11,9 C 10,6 C 99 % 1010,1 hPa 0,0 l/m 0 min 0 min 39 W/m 33,5 km/h (5 Bft)
18.12.2014 12:32 11,9 C 10,6 C 99 % 1010,2 hPa 0,0 l/m 0 min 0 min 40 W/m 31,4 km/h (5 Bft)
18.12.2014 12:34 11,9 C 10,6 C 99 % 1010,1 hPa 0,0 l/m 0 min 0 min 46 W/m 20,9 km/h (4 Bft)
18.12.2014 12:36 11,9 C 10,6 C 99 % 1010,2 hPa 0,0 l/m 0 min 0 min 45 W/m 25,1 km/h (4 Bft)
18.12.2014 12:38 12,0 C 10,6 C 99 % 1010,1 hPa 0,0 l/m 0 min 0 min 34 W/m 23,0 km/h (4 Bft)
18.12.2014 12:40 12,0 C 10,6 C 99 % 1010,1 hPa 0,0 l/m 0 min 0 min 38 W/m 29,3 km/h (5 Bft)
18.12.2014 12:42 12,0 C 10,6 C 99 % 1010,1 hPa 0,0 l/m 0 min 0 min 39 W/m 20,9 km/h (4 Bft)
18.12.2014 12:44 12,0 C 10,6 C 99 % 1010,1 hPa 0,0 l/m 0 min 0 min 38 W/m 25,1 km/h (4 Bft)
18.12.2014 12:46 12,0 C 10,6 C 99 % 1010,1 hPa 0,0 l/m 0 min 0 min 39 W/m 31,4 km/h (5 Bft)
18.12.2014 12:48 12,0 C 10,6 C 99 % 1010,2 hPa 0,0 l/m 0 min 0 min 50 W/m 27,2 km/h (4 Bft)
18.12.2014 12:50 12,0 C 10,6 C 99 % 1010,0 hPa 0,0 l/m 0 min 0 min 53 W/m 31,4 km/h (5 Bft)
18.12.2014 12:52 12,0 C 10,6 C 99 % 1010,0 hPa 0,0 l/m 0 min 0 min 66 W/m 25,1 km/h (4 Bft)
18.12.2014 12:54 12,0 C 10,6 C 99 % 1010,1 hPa 0,0 l/m 0 min 0 min 63 W/m 29,3 km/h (5 Bft)
18.12.2014 12:56 12,0 C 10,6 C 99 % 1010,0 hPa 0,0 l/m 0 min 0 min 65 W/m 35,6 km/h (5 Bft)
18.12.2014 12:58 12,0 C 10,6 C 99 % 1010,0 hPa 0,0 l/m 0 min 0 min 71 W/m 23,0 km/h (4 Bft)
18.12.2014 13:00 12,0 C 10,6 C 99 % 1009,9 hPa 0,0 l/m 0 min 0 min 66 W/m 31,4 km/h (5 Bft)
18.12.2014 13:02 12,0 C 10,6 C 99 % 1010,0 hPa 0,0 l/m 0 min 0 min 64 W/m 29,3 km/h (5 Bft)
18.12.2014 13:04 12,1 C 10,6 C 99 % 1010,0 hPa 0,0 l/m 0 min 0 min 58 W/m 33,5 km/h (5 Bft)
18.12.2014 13:06 12,1 C 10,6 C 99 % 1010,0 hPa 0,0 l/m 0 min 0 min 45 W/m 31,4 km/h (5 Bft)
18.12.2014 13:08 12,1 C 10,6 C 99 % 1010,0 hPa 0,0 l/m 0 min 0 min 37 W/m 37,7 km/h (5 Bft)
18.12.2014 13:10 12,1 C 10,6 C 99 % 1010,0 hPa 0,0 l/m 0 min 0 min 48 W/m 27,2 km/h (4 Bft)
18.12.2014 13:12 12,0 C 10,6 C 98 % 1010,1 hPa 0,0 l/m 0 min 0 min 57 W/m 29,3 km/h (5 Bft)
18.12.2014 13:14 12,0 C 10,6 C 98 % 1010,0 hPa 0,0 l/m 0 min 0 min 46 W/m 23,0 km/h (4 Bft)
18.12.2014 13:16 12,0 C 10,6 C 98 % 1010,0 hPa 0,0 l/m 0 min 0 min 37 W/m 25,1 km/h (4 Bft)
18.12.2014 13:18 12,0 C 10,6 C 98 % 1010,0 hPa 0,0 l/m 0 min 0 min 38 W/m 20,9 km/h (4 Bft)
18.12.2014 13:20 12,0 C 10,6 C 98 % 1010,0 hPa 0,0 l/m 0 min 0 min 37 W/m 20,9 km/h (4 Bft)
18.12.2014 13:22 12,0 C 10,6 C 98 % 1010,1 hPa 0,0 l/m 0 min 0 min 40 W/m 33,5 km/h (5 Bft)
18.12.2014 13:24 12,0 C 10,6 C 98 % 1010,0 hPa 0,0 l/m 0 min 0 min 34 W/m 29,3 km/h (5 Bft)
18.12.2014 13:26 12,0 C 10,6 C 98 % 1010,1 hPa 0,0 l/m 0 min 0 min 19 W/m 23,0 km/h (4 Bft)
18.12.2014 13:28 12,0 C 10,6 C 98 % 1010,0 hPa 0,0 l/m 0 min 0 min 21 W/m 31,4 km/h (5 Bft)
18.12.2014 13:30 12,0 C 10,6 C 98 % 1010,1 hPa 0,0 l/m 0 min 0 min 37 W/m 29,3 km/h (5 Bft)
18.12.2014 13:32 12,0 C 10,6 C 98 % 1010,1 hPa 0,0 l/m 0 min 0 min 46 W/m 25,1 km/h (4 Bft)
18.12.2014 13:34 12,0 C 10,6 C 98 % 1009,9 hPa 0,0 l/m 0 min 0 min 57 W/m 31,4 km/h (5 Bft)
18.12.2014 13:36 12,0 C 10,6 C 98 % 1010,0 hPa 0,0 l/m 0 min 0 min 47 W/m 29,3 km/h (5 Bft)
18.12.2014 13:38 12,0 C 10,6 C 98 % 1010,0 hPa 0,0 l/m 0 min 0 min 51 W/m 25,1 km/h (4 Bft)
18.12.2014 13:40 12,0 C 10,6 C 98 % 1010,0 hPa 0,0 l/m 0 min 0 min 48 W/m 27,2 km/h (4 Bft)
18.12.2014 13:42 12,0 C 10,6 C 98 % 1010,0 hPa 0,0 l/m 0 min 0 min 48 W/m 27,2 km/h (4 Bft)
18.12.2014 13:44 12,0 C 10,6 C 98 % 1010,0 hPa 0,0 l/m 0 min 0 min 49 W/m 23,0 km/h (4 Bft)
18.12.2014 13:46 12,0 C 10,6 C 98 % 1010,1 hPa 0,0 l/m 0 min 0 min 38 W/m 27,2 km/h (4 Bft)
18.12.2014 13:48 11,9 C 10,6 C 98 % 1010,1 hPa 0,0 l/m 0 min 0 min 40 W/m 23,0 km/h (4 Bft)
18.12.2014 13:50 11,9 C 10,6 C 98 % 1010,2 hPa 0,0 l/m 0 min 0 min 42 W/m 20,9 km/h (4 Bft)
18.12.2014 13:52 11,9 C 10,6 C 98 % 1010,1 hPa 0,0 l/m 0 min 0 min 48 W/m 25,1 km/h (4 Bft)
18.12.2014 13:54 11,9 C 10,6 C 98 % 1010,1 hPa 0,0 l/m 0 min 0 min 50 W/m 29,3 km/h (5 Bft)
18.12.2014 13:56 11,9 C 10,6 C 98 % 1010,1 hPa 0,0 l/m 0 min 0 min 45 W/m 25,1 km/h (4 Bft)
18.12.2014 13:58 11,9 C 10,6 C 98 % 1010,1 hPa 0,0 l/m 0 min 0 min 34 W/m 31,4 km/h (5 Bft)
18.12.2014 14:00 11,9 C 10,6 C 98 % 1010,1 hPa 0,0 l/m 0 min 0 min 38 W/m 25,1 km/h (4 Bft)
18.12.2014 14:03 11,9 C 10,6 C 98 % 1010,1 hPa 0,0 l/m 0 min 0 min 25 W/m 31,4 km/h (5 Bft)
18.12.2014 14:04 11,9 C 10,6 C 98 % 1010,1 hPa 0,0 l/m 0 min 0 min 30 W/m 31,4 km/h (5 Bft)
18.12.2014 14:06 11,9 C 10,6 C 98 % 1010,1 hPa 0,0 l/m 0 min 0 min 35 W/m 31,4 km/h (5 Bft)
18.12.2014 14:08 11,9 C 10,6 C 98 % 1010,1 hPa 0,0 l/m 0 min 0 min 33 W/m 31,4 km/h (5 Bft)
18.12.2014 14:10 11,9 C 10,6 C 98 % 1010,2 hPa 0,0 l/m 0 min 0 min 30 W/m 31,4 km/h (5 Bft)
18.12.2014 14:12 11,9 C 10,6 C 98 % 1010,2 hPa 0,0 l/m 0 min 0 min 19 W/m 18,8 km/h (3 Bft)
18.12.2014 14:14 11,9 C 10,6 C 98 % 1010,2 hPa 0,0 l/m 0 min 0 min 20 W/m 31,4 km/h (5 Bft)
18.12.2014 14:16 11,9 C 10,6 C 98 % 1010,2 hPa 0,0 l/m 0 min 0 min 18 W/m 16,7 km/h (3 Bft)
18.12.2014 14:18 11,9 C 10,6 C 98 % 1010,2 hPa 0,0 l/m 0 min 0 min 22 W/m 29,3 km/h (5 Bft)
18.12.2014 14:20 11,9 C 10,6 C 98 % 1010,2 hPa 0,0 l/m 0 min 0 min 23 W/m 29,3 km/h (5 Bft)
18.12.2014 14:22 11,9 C 10,6 C 98 % 1010,2 hPa 0,0 l/m 0 min 0 min 28 W/m 29,3 km/h (5 Bft)
18.12.2014 14:24 11,9 C 10,6 C 98 % 1010,2 hPa 0,0 l/m 0 min 0 min 40 W/m 23,0 km/h (4 Bft)
18.12.2014 14:26 11,9 C 10,6 C 98 % 1010,2 hPa 0,0 l/m 0 min 0 min 51 W/m 29,3 km/h (5 Bft)
18.12.2014 14:28 11,9 C 10,6 C 98 % 1010,1 hPa 0,0 l/m 0 min 0 min 47 W/m 33,5 km/h (5 Bft)
18.12.2014 14:30 11,9 C 10,6 C 98 % 1010,1 hPa 0,0 l/m 0 min 0 min 53 W/m 25,1 km/h (4 Bft)
18.12.2014 14:32 12,0 C 10,6 C 98 % 1010,1 hPa 0,0 l/m 0 min 0 min 51 W/m 29,3 km/h (5 Bft)
18.12.2014 14:34 12,0 C 10,6 C 98 % 1010,1 hPa 0,0 l/m 0 min 0 min 47 W/m 25,1 km/h (4 Bft)
18.12.2014 14:36 12,0 C 10,6 C 98 % 1010,1 hPa 0,0 l/m 0 min 0 min 39 W/m 27,2 km/h (4 Bft)
18.12.2014 14:38 12,0 C 10,6 C 98 % 1010,0 hPa 0,0 l/m 0 min 0 min 35 W/m 20,9 km/h (4 Bft)
18.12.2014 14:40 12,0 C 10,6 C 98 % 1010,1 hPa 0,0 l/m 0 min 0 min 38 W/m 23,0 km/h (4 Bft)
18.12.2014 14:42 12,0 C 10,6 C 98 % 1010,0 hPa 0,0 l/m 0 min 0 min 38 W/m 23,0 km/h (4 Bft)
18.12.2014 14:44 12,0 C 10,6 C 98 % 1010,1 hPa 0,0 l/m 0 min 0 min 39 W/m 18,8 km/h (3 Bft)
18.12.2014 14:46 12,0 C 10,6 C 98 % 1010,0 hPa 0,0 l/m 0 min 0 min 43 W/m 29,3 km/h (5 Bft)
18.12.2014 14:48 12,0 C 10,6 C 98 % 1009,9 hPa 0,0 l/m 0 min 0 min 42 W/m 25,1 km/h (4 Bft)
18.12.2014 14:50 12,0 C 10,6 C 98 % 1010,0 hPa 0,0 l/m 0 min 0 min 40 W/m 23,0 km/h (4 Bft)
18.12.2014 14:52 12,0 C 10,6 C 98 % 1010,0 hPa 0,0 l/m 0 min 0 min 34 W/m 29,3 km/h (5 Bft)
18.12.2014 14:54 12,0 C 10,6 C 98 % 1010,0 hPa 0,0 l/m 0 min 0 min 32 W/m 35,6 km/h (5 Bft)
18.12.2014 14:56 12,0 C 10,6 C 98 % 1010,1 hPa 0,0 l/m 0 min 0 min 31 W/m 25,1 km/h (4 Bft)
18.12.2014 14:58 12,0 C 10,6 C 98 % 1010,0 hPa 0,0 l/m 0 min 0 min 29 W/m 31,4 km/h (5 Bft)
18.12.2014 15:00 12,0 C 10,6 C 98 % 1010,0 hPa 0,0 l/m 0 min 2 min 33 W/m 25,1 km/h (4 Bft)
18.12.2014 15:02 12,0 C 10,6 C 98 % 1010,0 hPa 0,0 l/m 0 min 2 min 33 W/m 25,1 km/h (4 Bft)
18.12.2014 15:04 12,0 C 10,6 C 98 % 1010,0 hPa 0,0 l/m 0 min 2 min 38 W/m 25,1 km/h (4 Bft)
18.12.2014 15:06 12,0 C 10,6 C 98 % 1010,0 hPa 0,0 l/m 0 min 2 min 35 W/m 27,2 km/h (4 Bft)
18.12.2014 15:08 12,0 C 10,6 C 98 % 1009,9 hPa 0,0 l/m 0 min 2 min 33 W/m 25,1 km/h (4 Bft)
18.12.2014 15:10 12,0 C 10,6 C 98 % 1010,0 hPa 0,0 l/m 0 min 2 min 29 W/m 31,4 km/h (5 Bft)
18.12.2014 15:12 12,0 C 10,6 C 98 % 1010,0 hPa 0,0 l/m 0 min 2 min 27 W/m 27,2 km/h (4 Bft)
18.12.2014 15:14 12,0 C 10,6 C 98 % 1010,0 hPa 0,0 l/m 0 min 2 min 20 W/m 27,2 km/h (4 Bft)
18.12.2014 15:16 12,0 C 10,6 C 98 % 1010,1 hPa 0,0 l/m 0 min 2 min 15 W/m 31,4 km/h (5 Bft)
18.12.2014 15:18 12,0 C 10,6 C 98 % 1010,0 hPa 0,0 l/m 0 min 2 min 11 W/m 29,3 km/h (5 Bft)
18.12.2014 15:20 12,0 C 10,6 C 98 % 1010,1 hPa 0,0 l/m 0 min 2 min 11 W/m 31,4 km/h (5 Bft)
18.12.2014 15:22 12,0 C 10,6 C 98 % 1010,0 hPa 0,0 l/m 0 min 0 min 11 W/m 29,3 km/h (5 Bft)
18.12.2014 15:24 12,0 C 10,6 C 98 % 1010,1 hPa 0,0 l/m 0 min 0 min 10 W/m 29,3 km/h (5 Bft)
18.12.2014 15:26 12,0 C 10,6 C 98 % 1010,0 hPa 0,0 l/m 0 min 0 min 9 W/m 35,6 km/h (5 Bft)
18.12.2014 15:28 12,0 C 10,6 C 98 % 1010,1 hPa 0,0 l/m 0 min 2 min 9 W/m 35,6 km/h (5 Bft)
18.12.2014 15:30 12,0 C 10,6 C 98 % 1010,1 hPa 0,0 l/m 0 min 0 min 9 W/m 35,6 km/h (5 Bft)
18.12.2014 15:32 12,0 C 10,6 C 98 % 1010,1 hPa 0,0 l/m 0 min 0 min 7 W/m 33,5 km/h (5 Bft)
18.12.2014 15:34 12,0 C 10,6 C 98 % 1010,1 hPa 0,0 l/m 0 min 0 min 7 W/m 31,4 km/h (5 Bft)
18.12.2014 15:36 12,0 C 10,6 C 98 % 1010,1 hPa 0,0 l/m 0 min 2 min 7 W/m 25,1 km/h (4 Bft)
18.12.2014 15:38 12,0 C 10,6 C 98 % 1010,1 hPa 0,0 l/m 0 min 0 min 6 W/m 35,6 km/h (5 Bft)
18.12.2014 15:40 12,0 C 10,6 C 98 % 1010,1 hPa 0,0 l/m 0 min 0 min 6 W/m 33,5 km/h (5 Bft)
18.12.2014 15:42 12,0 C 10,6 C 98 % 1010,0 hPa 0,0 l/m 0 min 0 min 6 W/m 41,8 km/h (6 Bft)
18.12.2014 15:44 12,0 C 10,6 C 98 % 1010,0 hPa 0,0 l/m 0 min 0 min 5 W/m 37,7 km/h (5 Bft)
18.12.2014 15:46 12,0 C 10,6 C 98 % 1010,0 hPa 0,0 l/m 0 min 0 min 5 W/m 31,4 km/h (5 Bft)
18.12.2014 15:48 12,0 C 10,6 C 98 % 1010,1 hPa 0,0 l/m 0 min 0 min 5 W/m 33,5 km/h (5 Bft)
18.12.2014 15:50 12,0 C 10,6 C 98 % 1010,0 hPa 0,0 l/m 0 min 0 min 5 W/m 35,6 km/h (5 Bft)
18.12.2014 15:52 12,0 C 10,6 C 98 % 1010,0 hPa 0,0 l/m 0 min 0 min 4 W/m 29,3 km/h (5 Bft)
18.12.2014 15:54 12,0 C 10,6 C 98 % 1010,0 hPa 0,0 l/m 0 min 0 min 0 W/m 35,6 km/h (5 Bft)
18.12.2014 15:56 12,0 C 10,6 C 98 % 1010,0 hPa 0,0 l/m 0 min 0 min 0 W/m 31,4 km/h (5 Bft)
18.12.2014 15:58 12,1 C 10,6 C 98 % 1010,1 hPa 0,0 l/m 0 min 0 min 0 W/m 35,6 km/h (5 Bft)
18.12.2014 16:00 12,1 C 10,6 C 98 % 1010,0 hPa 0,0 l/m 0 min 0 min 0 W/m 37,7 km/h (5 Bft)
18.12.2014 16:02 12,1 C 10,6 C 98 % 1010,1 hPa 0,0 l/m 0 min 0 min 0 W/m 31,4 km/h (5 Bft)
18.12.2014 16:04 12,1 C 10,6 C 98 % 1010,0 hPa 0,0 l/m 0 min 0 min 0 W/m 33,5 km/h (5 Bft)
18.12.2014 16:06 12,1 C 10,6 C 98 % 1010,1 hPa 0,0 l/m 0 min 0 min 0 W/m 33,5 km/h (5 Bft)
18.12.2014 16:08 12,1 C 10,6 C 98 % 1010,1 hPa 0,0 l/m 0 min 0 min 0 W/m 41,8 km/h (6 Bft)
18.12.2014 16:10 12,1 C 10,6 C 98 % 1010,1 hPa 0,0 l/m 0 min 0 min 0 W/m 43,9 km/h (6 Bft)
18.12.2014 16:12 12,1 C 10,6 C 98 % 1010,1 hPa 0,0 l/m 0 min 0 min 0 W/m 33,5 km/h (5 Bft)
18.12.2014 16:14 12,1 C 10,6 C 98 % 1010,1 hPa 0,0 l/m 0 min 0 min 0 W/m 35,6 km/h (5 Bft)
18.12.2014 16:16 12,1 C 10,6 C 98 % 1010,1 hPa 0,0 l/m 0 min 0 min 0 W/m 41,8 km/h (6 Bft)
18.12.2014 16:18 12,1 C 10,6 C 98 % 1010,2 hPa 0,0 l/m 0 min 0 min 0 W/m 41,8 km/h (6 Bft)
18.12.2014 16:20 12,1 C 10,6 C 98 % 1010,2 hPa 0,0 l/m 0 min 0 min 0 W/m 41,8 km/h (6 Bft)
18.12.2014 16:22 12,2 C 10,6 C 98 % 1010,2 hPa 0,0 l/m 0 min 0 min 0 W/m 35,6 km/h (5 Bft)
18.12.2014 16:24 12,2 C 10,6 C 98 % 1010,1 hPa 0,0 l/m 0 min 0 min 0 W/m 43,9 km/h (6 Bft)
18.12.2014 16:26 12,2 C 10,6 C 98 % 1010,1 hPa 0,0 l/m 0 min 0 min 0 W/m 31,4 km/h (5 Bft)
18.12.2014 16:28 12,2 C 10,6 C 98 % 1010,2 hPa 0,0 l/m 0 min 0 min 0 W/m 39,7 km/h (6 Bft)
18.12.2014 16:30 12,2 C 10,6 C 98 % 1010,3 hPa 0,0 l/m 0 min 0 min 0 W/m 37,7 km/h (5 Bft)
18.12.2014 16:32 12,2 C 10,6 C 98 % 1010,3 hPa 0,0 l/m 0 min 0 min 0 W/m 41,8 km/h (6 Bft)
18.12.2014 16:34 12,2 C 10,6 C 98 % 1010,2 hPa 0,0 l/m 0 min 0 min 0 W/m 31,4 km/h (5 Bft)
18.12.2014 16:36 12,2 C 10,6 C 98 % 1010,2 hPa 0,0 l/m 0 min 0 min 0 W/m 37,7 km/h (5 Bft)
18.12.2014 16:38 12,2 C 11,1 C 98 % 1010,2 hPa 0,0 l/m 0 min 0 min 0 W/m 33,5 km/h (5 Bft)
18.12.2014 16:40 12,3 C 11,1 C 98 % 1010,3 hPa 0,0 l/m 0 min 0 min 0 W/m 39,7 km/h (6 Bft)
18.12.2014 16:42 12,3 C 11,1 C 98 % 1010,3 hPa 0,0 l/m 0 min 0 min 0 W/m 41,8 km/h (6 Bft)
18.12.2014 16:44 12,3 C 11,1 C 98 % 1010,4 hPa 0,0 l/m 0 min 0 min 0 W/m 39,7 km/h (6 Bft)
18.12.2014 16:46 12,3 C 11,1 C 98 % 1010,4 hPa 0,0 l/m 0 min 0 min 0 W/m 35,6 km/h (5 Bft)
18.12.2014 16:48 12,3 C 11,1 C 98 % 1010,4 hPa 0,0 l/m 0 min 0 min 0 W/m 33,5 km/h (5 Bft)
18.12.2014 16:50 12,3 C 11,1 C 98 % 1010,4 hPa 0,0 l/m 0 min 0 min 0 W/m 41,8 km/h (6 Bft)
18.12.2014 16:52 12,3 C 11,1 C 98 % 1010,5 hPa 0,0 l/m 0 min 0 min 0 W/m 39,7 km/h (6 Bft)
18.12.2014 16:54 12,3 C 11,1 C 98 % 1010,4 hPa 0,0 l/m 0 min 0 min 0 W/m 43,9 km/h (6 Bft)
18.12.2014 16:56 12,3 C 11,1 C 98 % 1010,5 hPa 0,0 l/m 0 min 0 min 0 W/m 50,2 km/h (7 Bft)
18.12.2014 16:58 12,3 C 11,1 C 98 % 1010,4 hPa 0,0 l/m 0 min 0 min 0 W/m 39,7 km/h (6 Bft)
18.12.2014 17:00 12,3 C 11,1 C 98 % 1010,4 hPa 0,0 l/m 0 min 0 min 0 W/m 33,5 km/h (5 Bft)
18.12.2014 17:02 12,3 C 11,1 C 98 % 1010,4 hPa 0,0 l/m 0 min 0 min 0 W/m 33,5 km/h (5 Bft)
18.12.2014 17:04 12,4 C 11,1 C 98 % 1010,4 hPa 0,0 l/m 0 min 0 min 0 W/m 35,6 km/h (5 Bft)
18.12.2014 17:06 12,4 C 11,1 C 98 % 1010,4 hPa 0,0 l/m 0 min 0 min 0 W/m 35,6 km/h (5 Bft)
18.12.2014 17:08 12,4 C 11,1 C 98 % 1010,4 hPa 0,0 l/m 0 min 2 min 0 W/m 31,4 km/h (5 Bft)
18.12.2014 17:10 12,4 C 11,1 C 98 % 1010,5 hPa 0,0 l/m 0 min 0 min 0 W/m 37,7 km/h (5 Bft)
18.12.2014 17:12 12,4 C 11,1 C 98 % 1010,5 hPa 0,0 l/m 0 min 0 min 0 W/m 41,8 km/h (6 Bft)
18.12.2014 17:14 12,4 C 11,1 C 98 % 1010,5 hPa 0,0 l/m 0 min 0 min 0 W/m 41,8 km/h (6 Bft)
18.12.2014 17:16 12,4 C 11,1 C 98 % 1010,5 hPa 0,0 l/m 0 min 2 min 0 W/m 39,7 km/h (6 Bft)
18.12.2014 17:18 12,4 C 11,1 C 98 % 1010,5 hPa 0,0 l/m 0 min 0 min 0 W/m 50,2 km/h (7 Bft)
18.12.2014 17:20 12,4 C 11,1 C 98 % 1010,5 hPa 0,0 l/m 0 min 0 min 0 W/m 48,1 km/h (6 Bft)
18.12.2014 17:22 12,4 C 11,1 C 98 % 1010,5 hPa 0,0 l/m 0 min 0 min 0 W/m 54,4 km/h (7 Bft)
18.12.2014 17:24 12,4 C 11,1 C 98 % 1010,5 hPa 0,0 l/m 0 min 0 min 0 W/m 41,8 km/h (6 Bft)
18.12.2014 17:26 12,4 C 11,1 C 97 % 1010,5 hPa 0,0 l/m 0 min 0 min 0 W/m 41,8 km/h (6 Bft)
18.12.2014 17:28 12,4 C 11,1 C 97 % 1010,6 hPa 0,0 l/m 0 min 0 min 0 W/m 39,7 km/h (6 Bft)
18.12.2014 17:30 12,4 C 11,1 C 97 % 1010,8 hPa 0,0 l/m 0 min 0 min 0 W/m 31,4 km/h (5 Bft)
18.12.2014 17:32 12,4 C 11,1 C 97 % 1010,8 hPa 0,0 l/m 0 min 0 min 0 W/m 33,5 km/h (5 Bft)
18.12.2014 17:34 12,4 C 11,1 C 97 % 1010,9 hPa 0,0 l/m 0 min 0 min 0 W/m 43,9 km/h (6 Bft)
18.12.2014 17:36 12,4 C 11,1 C 97 % 1010,8 hPa 0,0 l/m 0 min 0 min 0 W/m 52,3 km/h (7 Bft)
18.12.2014 17:38 12,4 C 11,1 C 97 % 1010,9 hPa 0,0 l/m 0 min 2 min 0 W/m 43,9 km/h (6 Bft)
18.12.2014 17:40 12,4 C 11,1 C 97 % 1011,1 hPa 0,0 l/m 0 min 0 min 0 W/m 50,2 km/h (7 Bft)
18.12.2014 17:42 12,4 C 11,1 C 97 % 1011,1 hPa 0,0 l/m 0 min 0 min 0 W/m 58,6 km/h (7 Bft)
18.12.2014 17:44 12,4 C 11,1 C 97 % 1011,0 hPa 0,0 l/m 0 min 0 min 0 W/m 46,0 km/h (6 Bft)
18.12.2014 17:46 12,3 C 11,1 C 97 % 1011,0 hPa 0,0 l/m 0 min 2 min 0 W/m 50,2 km/h (7 Bft)
18.12.2014 17:48 12,3 C 11,1 C 97 % 1011,0 hPa 0,0 l/m 0 min 0 min 0 W/m 39,7 km/h (6 Bft)
18.12.2014 17:50 12,3 C 11,1 C 97 % 1011,0 hPa 0,0 l/m 0 min 0 min 0 W/m 46,0 km/h (6 Bft)
18.12.2014 17:52 12,4 C 11,1 C 97 % 1011,0 hPa 0,0 l/m 0 min 2 min 0 W/m 43,9 km/h (6 Bft)
18.12.2014 17:54 12,3 C 11,1 C 96 % 1011,0 hPa 0,0 l/m 0 min 2 min 0 W/m 46,0 km/h (6 Bft)
18.12.2014 17:56 12,3 C 11,1 C 96 % 1011,0 hPa 0,0 l/m 0 min 2 min 0 W/m 48,1 km/h (6 Bft)
18.12.2014 17:58 12,3 C 11,1 C 96 % 1011,1 hPa 0,0 l/m 0 min 2 min 0 W/m 48,1 km/h (6 Bft)
18.12.2014 18:00 12,3 C 11,1 C 96 % 1011,1 hPa 0,0 l/m 0 min 0 min 0 W/m 43,9 km/h (6 Bft)
18.12.2014 18:03 12,3 C 11,1 C 96 % 1011,0 hPa 0,0 l/m 0 min 0 min 0 W/m 56,5 km/h (7 Bft)
18.12.2014 18:06 12,3 C 11,1 C 96 % 1010,9 hPa 0,0 l/m 0 min 0 min 0 W/m 60,7 km/h (7 Bft)
18.12.2014 18:08 12,3 C 10,6 C 95 % 1011,1 hPa 0,0 l/m 0 min 0 min 0 W/m 58,6 km/h (7 Bft)
18.12.2014 18:10 12,3 C 10,6 C 95 % 1011,0 hPa 0,0 l/m 0 min 0 min 0 W/m 50,2 km/h (7 Bft)
18.12.2014 18:12 12,3 C 10,6 C 95 % 1011,0 hPa 0,0 l/m 0 min 0 min 0 W/m 50,2 km/h (7 Bft)
18.12.2014 18:14 12,3 C 10,6 C 95 % 1011,0 hPa 0,0 l/m 0 min 0 min 0 W/m 43,9 km/h (6 Bft)
18.12.2014 18:16 12,3 C 10,6 C 95 % 1010,9 hPa 0,0 l/m 0 min 0 min 0 W/m 54,4 km/h (7 Bft)
18.12.2014 18:18 12,3 C 10,6 C 95 % 1011,1 hPa 0,0 l/m 0 min 0 min 0 W/m 48,1 km/h (6 Bft)
18.12.2014 18:20 12,2 C 10,6 C 94 % 1011,0 hPa 0,0 l/m 0 min 0 min 0 W/m 56,5 km/h (7 Bft)
18.12.2014 18:22 12,2 C 10,6 C 94 % 1011,0 hPa 0,0 l/m 0 min 0 min 0 W/m 52,3 km/h (7 Bft)
18.12.2014 18:24 12,3 C 10,6 C 94 % 1011,0 hPa 0,0 l/m 0 min 0 min 0 W/m 43,9 km/h (6 Bft)
18.12.2014 18:26 12,3 C 11,1 C 94 % 1011,0 hPa 0,0 l/m 0 min 0 min 0 W/m 54,4 km/h (7 Bft)
18.12.2014 18:28 12,3 C 11,1 C 93 % 1010,9 hPa 0,0 l/m 0 min 0 min 0 W/m 52,3 km/h (7 Bft)
18.12.2014 18:30 12,3 C 11,1 C 93 % 1011,0 hPa 0,0 l/m 0 min 0 min 0 W/m 39,7 km/h (6 Bft)
18.12.2014 18:32 12,3 C 11,1 C 93 % 1011,0 hPa 0,0 l/m 0 min 0 min 0 W/m 46,0 km/h (6 Bft)
18.12.2014 18:34 12,3 C 11,1 C 93 % 1011,1 hPa 0,0 l/m 0 min 0 min 0 W/m 41,8 km/h (6 Bft)
18.12.2014 18:36 12,3 C 11,1 C 93 % 1011,1 hPa 0,0 l/m 0 min 0 min 0 W/m 43,9 km/h (6 Bft)
18.12.2014 18:38 12,3 C 11,1 C 92 % 1011,1 hPa 0,0 l/m 0 min 0 min 0 W/m 43,9 km/h (6 Bft)
18.12.2014 18:40 12,3 C 11,1 C 92 % 1011,2 hPa 0,0 l/m 0 min 0 min 0 W/m 54,4 km/h (7 Bft)
18.12.2014 18:42 12,4 C 11,1 C 92 % 1011,1 hPa 0,0 l/m 0 min 0 min 0 W/m 43,9 km/h (6 Bft)
18.12.2014 18:44 12,4 C 10,6 C 92 % 1011,1 hPa 0,0 l/m 0 min 0 min 0 W/m 43,9 km/h (6 Bft)
18.12.2014 18:46 12,4 C 11,1 C 92 % 1011,2 hPa 0,0 l/m 0 min 0 min 0 W/m 46,0 km/h (6 Bft)
18.12.2014 18:48 12,4 C 10,6 C 92 % 1011,2 hPa 0,0 l/m 0 min 0 min 0 W/m 43,9 km/h (6 Bft)
18.12.2014 18:50 12,4 C 10,6 C 91 % 1011,2 hPa 0,0 l/m 0 min 0 min 0 W/m 41,8 km/h (6 Bft)
18.12.2014 18:52 12,4 C 11,1 C 91 % 1011,1 hPa 0,0 l/m 0 min 0 min 0 W/m 43,9 km/h (6 Bft)
18.12.2014 18:54 12,4 C 10,6 C 91 % 1011,1 hPa 0,0 l/m 0 min 0 min 0 W/m 37,7 km/h (5 Bft)
18.12.2014 18:56 12,4 C 10,6 C 91 % 1011,2 hPa 0,0 l/m 0 min 0 min 0 W/m 46,0 km/h (6 Bft)
18.12.2014 18:58 12,4 C 10,6 C 91 % 1011,2 hPa 0,0 l/m 0 min 0 min 0 W/m 43,9 km/h (6 Bft)
18.12.2014 19:00 12,4 C 10,6 C 91 % 1011,3 hPa 0,0 l/m 0 min 0 min 0 W/m 46,0 km/h (6 Bft)
18.12.2014 19:02 12,4 C 11,1 C 91 % 1011,3 hPa 0,0 l/m 0 min 0 min 0 W/m 46,0 km/h (6 Bft)
18.12.2014 19:04 12,4 C 11,1 C 91 % 1011,2 hPa 0,0 l/m 0 min 0 min 0 W/m 39,7 km/h (6 Bft)
18.12.2014 19:06 12,4 C 10,6 C 91 % 1011,3 hPa 0,0 l/m 0 min 0 min 0 W/m 48,1 km/h (6 Bft)
18.12.2014 19:08 12,4 C 10,6 C 91 % 1011,3 hPa 0,0 l/m 0 min 0 min 0 W/m 46,0 km/h (6 Bft)
18.12.2014 19:10 12,4 C 11,1 C 91 % 1011,3 hPa 0,0 l/m 0 min 0 min 0 W/m 58,6 km/h (7 Bft)
18.12.2014 19:12 12,4 C 11,1 C 91 % 1011,2 hPa 0,0 l/m 0 min 0 min 0 W/m 54,4 km/h (7 Bft)
18.12.2014 19:14 12,4 C 11,1 C 91 % 1011,3 hPa 0,0 l/m 0 min 0 min 0 W/m 60,7 km/h (7 Bft)
18.12.2014 19:16 12,4 C 11,1 C 90 % 1011,3 hPa 0,0 l/m 0 min 0 min 0 W/m 52,3 km/h (7 Bft)
18.12.2014 19:18 12,4 C 11,1 C 90 % 1011,2 hPa 0,0 l/m 0 min 0 min 0 W/m 52,3 km/h (7 Bft)
18.12.2014 19:20 12,4 C 11,1 C 90 % 1011,3 hPa 0,0 l/m 0 min 0 min 0 W/m 33,5 km/h (5 Bft)
18.12.2014 19:22 12,4 C 10,6 C 90 % 1011,6 hPa 0,0 l/m 0 min 0 min 0 W/m 41,8 km/h (6 Bft)
18.12.2014 19:24 12,4 C 10,6 C 91 % 1011,4 hPa 0,0 l/m 0 min 0 min 0 W/m 54,4 km/h (7 Bft)
18.12.2014 19:26 12,4 C 10,6 C 91 % 1011,5 hPa 0,0 l/m 0 min 0 min 0 W/m 54,4 km/h (7 Bft)
18.12.2014 19:28 12,4 C 10,6 C 91 % 1011,5 hPa 0,0 l/m 0 min 0 min 0 W/m 46,0 km/h (6 Bft)
18.12.2014 19:30 12,3 C 10,6 C 91 % 1011,5 hPa 0,0 l/m 0 min 0 min 0 W/m 50,2 km/h (7 Bft)
18.12.2014 19:32 12,3 C 10,6 C 91 % 1011,5 hPa 0,0 l/m 0 min 0 min 0 W/m 52,3 km/h (7 Bft)
18.12.2014 19:34 12,3 C 10,6 C 91 % 1011,6 hPa 0,0 l/m 0 min 2 min 0 W/m 50,2 km/h (7 Bft)
18.12.2014 19:36 12,3 C 10,6 C 91 % 1011,4 hPa 0,0 l/m 0 min 2 min 0 W/m 41,8 km/h (6 Bft)
18.12.2014 19:38 12,2 C 10,6 C 92 % 1011,5 hPa 0,0 l/m 0 min 2 min 0 W/m 50,2 km/h (7 Bft)
18.12.2014 19:40 12,2 C 10,6 C 92 % 1011,5 hPa 0,0 l/m 0 min 2 min 0 W/m 46,0 km/h (6 Bft)
18.12.2014 19:42 12,2 C 10,6 C 92 % 1011,5 hPa 0,0 l/m 0 min 2 min 0 W/m 41,8 km/h (6 Bft)
18.12.2014 19:46 12,1 C 10,0 C 92 % 1011,5 hPa 0,0 l/m 0 min 2 min 0 W/m 50,2 km/h (7 Bft)
18.12.2014 19:50 12,0 C 10,0 C 93 % 1011,6 hPa 0,0 l/m 0 min 2 min 0 W/m 43,9 km/h (6 Bft)
18.12.2014 19:52 11,9 C 10,0 C 93 % 1011,6 hPa 0,0 l/m 0 min 2 min 0 W/m 54,4 km/h (7 Bft)
18.12.2014 19:54 11,9 C 10,0 C 93 % 1011,6 hPa 0,0 l/m 0 min 2 min 0 W/m 41,8 km/h (6 Bft)
18.12.2014 19:56 11,9 C 10,0 C 93 % 1011,6 hPa 0,0 l/m 0 min 2 min 0 W/m 43,9 km/h (6 Bft)
18.12.2014 19:58 11,9 C 10,6 C 93 % 1011,5 hPa 0,0 l/m 0 min 2 min 0 W/m 60,7 km/h (7 Bft)
18.12.2014 20:00 11,9 C 10,6 C 93 % 1011,6 hPa 0,0 l/m 0 min 2 min 0 W/m 50,2 km/h (7 Bft)
18.12.2014 20:02 11,9 C 10,0 C 93 % 1011,5 hPa 0,0 l/m 0 min 2 min 0 W/m 46,0 km/h (6 Bft)
18.12.2014 20:04 11,9 C 10,0 C 93 % 1011,5 hPa 0,0 l/m 0 min 2 min 0 W/m 43,9 km/h (6 Bft)
18.12.2014 20:06 11,8 C 10,6 C 93 % 1011,5 hPa 0,0 l/m 0 min 2 min 0 W/m 48,1 km/h (6 Bft)
18.12.2014 20:08 11,8 C 10,6 C 93 % 1011,4 hPa 0,0 l/m 0 min 2 min 0 W/m 46,0 km/h (6 Bft)
18.12.2014 20:10 11,8 C 10,0 C 94 % 1011,5 hPa 0,0 l/m 0 min 2 min 0 W/m 37,7 km/h (5 Bft)
18.12.2014 20:12 11,8 C 10,0 C 94 % 1011,6 hPa 0,0 l/m 0 min 2 min 0 W/m 37,7 km/h (5 Bft)
18.12.2014 20:14 11,8 C 10,0 C 94 % 1011,4 hPa 0,0 l/m 0 min 2 min 0 W/m 41,8 km/h (6 Bft)
18.12.2014 20:16 11,8 C 10,0 C 94 % 1011,5 hPa 0,0 l/m 0 min 2 min 0 W/m 39,7 km/h (6 Bft)
18.12.2014 20:18 11,7 C 10,0 C 94 % 1011,5 hPa 0,0 l/m 0 min 2 min 0 W/m 43,9 km/h (6 Bft)
18.12.2014 20:20 11,7 C 10,0 C 94 % 1011,5 hPa 0,0 l/m 0 min 2 min 0 W/m 46,0 km/h (6 Bft)
18.12.2014 20:22 11,7 C 10,0 C 94 % 1011,6 hPa 0,0 l/m 0 min 2 min 0 W/m 41,8 km/h (6 Bft)
18.12.2014 20:24 11,7 C 10,0 C 94 % 1011,6 hPa 0,0 l/m 0 min 2 min 0 W/m 35,6 km/h (5 Bft)
18.12.2014 20:26 11,7 C 10,0 C 94 % 1011,6 hPa 0,0 l/m 0 min 2 min 0 W/m 33,5 km/h (5 Bft)
18.12.2014 20:28 11,7 C 10,0 C 94 % 1011,6 hPa 0,0 l/m 0 min 2 min 0 W/m 43,9 km/h (6 Bft)
18.12.2014 20:30 11,7 C 10,0 C 95 % 1011,8 hPa 0,0 l/m 0 min 2 min 0 W/m 39,7 km/h (6 Bft)
18.12.2014 20:32 11,6 C 10,0 C 95 % 1011,7 hPa 0,0 l/m 0 min 2 min 0 W/m 37,7 km/h (5 Bft)
18.12.2014 20:34 11,6 C 10,0 C 95 % 1011,7 hPa 0,0 l/m 0 min 2 min 0 W/m 35,6 km/h (5 Bft)
18.12.2014 20:36 11,6 C 10,0 C 95 % 1011,7 hPa 0,0 l/m 0 min 2 min 0 W/m 43,9 km/h (6 Bft)
18.12.2014 20:38 11,6 C 10,0 C 95 % 1011,8 hPa 0,0 l/m 0 min 2 min 0 W/m 46,0 km/h (6 Bft)
18.12.2014 20:40 11,6 C 10,0 C 95 % 1011,8 hPa 0,0 l/m 0 min 2 min 0 W/m 50,2 km/h (7 Bft)
18.12.2014 20:42 11,6 C 10,0 C 95 % 1011,7 hPa 0,0 l/m 0 min 2 min 0 W/m 35,6 km/h (5 Bft)
18.12.2014 20:44 11,6 C 10,0 C 95 % 1011,7 hPa 0,0 l/m 0 min 2 min 0 W/m 43,9 km/h (6 Bft)
18.12.2014 20:46 11,5 C 10,0 C 95 % 1011,8 hPa 0,0 l/m 0 min 2 min 0 W/m 48,1 km/h (6 Bft)
18.12.2014 20:48 11,5 C 10,0 C 95 % 1011,8 hPa 0,0 l/m 0 min 2 min 0 W/m 41,8 km/h (6 Bft)
18.12.2014 20:50 11,5 C 10,0 C 95 % 1011,7 hPa 0,0 l/m 0 min 2 min 0 W/m 43,9 km/h (6 Bft)
18.12.2014 20:52 11,5 C 10,0 C 96 % 1011,8 hPa 0,0 l/m 0 min 2 min 0 W/m 37,7 km/h (5 Bft)
18.12.2014 20:54 11,5 C 10,0 C 96 % 1011,8 hPa 0,0 l/m 0 min 2 min 0 W/m 31,4 km/h (5 Bft)
18.12.2014 20:56 11,5 C 10,0 C 96 % 1011,8 hPa 0,0 l/m 0 min 2 min 0 W/m 31,4 km/h (5 Bft)
18.12.2014 20:58 11,4 C 10,0 C 96 % 1011,7 hPa 0,0 l/m 0 min 2 min 0 W/m 35,6 km/h (5 Bft)
18.12.2014 21:00 11,4 C 10,0 C 96 % 1011,6 hPa 0,0 l/m 0 min 2 min 0 W/m 31,4 km/h (5 Bft)
18.12.2014 21:02 11,4 C 10,0 C 96 % 1011,7 hPa 0,0 l/m 0 min 2 min 0 W/m 43,9 km/h (6 Bft)
18.12.2014 21:04 11,4 C 10,0 C 96 % 1011,6 hPa 0,0 l/m 0 min 2 min 0 W/m 46,0 km/h (6 Bft)
18.12.2014 21:06 11,4 C 10,0 C 96 % 1011,6 hPa 0,0 l/m 0 min 2 min 0 W/m 33,5 km/h (5 Bft)
18.12.2014 21:08 11,4 C 10,0 C 96 % 1011,8 hPa 0,0 l/m 0 min 2 min 0 W/m 37,7 km/h (5 Bft)
18.12.2014 21:10 11,4 C 10,0 C 96 % 1011,7 hPa 0,0 l/m 0 min 2 min 0 W/m 41,8 km/h (6 Bft)
18.12.2014 21:12 11,4 C 10,0 C 96 % 1011,6 hPa 0,0 l/m 0 min 2 min 0 W/m 46,0 km/h (6 Bft)
18.12.2014 21:14 11,4 C 10,0 C 96 % 1011,6 hPa 0,2 l/m 0 min 2 min 0 W/m 48,1 km/h (6 Bft)
18.12.2014 21:16 11,4 C 10,0 C 96 % 1011,6 hPa 0,0 l/m 0 min 2 min 0 W/m 41,8 km/h (6 Bft)
18.12.2014 21:18 11,4 C 10,0 C 96 % 1011,7 hPa 0,0 l/m 0 min 2 min 0 W/m 48,1 km/h (6 Bft)
18.12.2014 21:20 11,4 C 10,0 C 96 % 1011,6 hPa 0,0 l/m 0 min 2 min 0 W/m 37,7 km/h (5 Bft)
18.12.2014 21:22 11,4 C 10,0 C 97 % 1011,7 hPa 0,0 l/m 0 min 2 min 0 W/m 43,9 km/h (6 Bft)
18.12.2014 21:24 11,4 C 10,0 C 97 % 1011,7 hPa 0,0 l/m 0 min 2 min 0 W/m 46,0 km/h (6 Bft)
18.12.2014 21:26 11,4 C 10,0 C 97 % 1011,8 hPa 0,0 l/m 0 min 2 min 0 W/m 48,1 km/h (6 Bft)
18.12.2014 21:28 11,4 C 10,0 C 97 % 1011,6 hPa 0,0 l/m 0 min 2 min 0 W/m 46,0 km/h (6 Bft)
18.12.2014 21:30 11,4 C 10,0 C 97 % 1011,7 hPa 0,0 l/m 0 min 2 min 0 W/m 48,1 km/h (6 Bft)
18.12.2014 21:32 11,4 C 10,0 C 97 % 1011,7 hPa 0,0 l/m 0 min 2 min 0 W/m 39,7 km/h (6 Bft)
18.12.2014 21:34 11,4 C 10,0 C 97 % 1011,7 hPa 0,0 l/m 0 min 2 min 0 W/m 52,3 km/h (7 Bft)
18.12.2014 21:36 11,4 C 10,0 C 97 % 1011,6 hPa 0,0 l/m 0 min 2 min 0 W/m 46,0 km/h (6 Bft)
18.12.2014 21:38 11,4 C 10,0 C 97 % 1011,5 hPa 0,0 l/m 0 min 2 min 0 W/m 46,0 km/h (6 Bft)
18.12.2014 21:40 11,4 C 10,0 C 97 % 1011,6 hPa 0,0 l/m 0 min 2 min 0 W/m 52,3 km/h (7 Bft)
18.12.2014 21:42 11,4 C 10,0 C 97 % 1011,6 hPa 0,0 l/m 0 min 2 min 0 W/m 56,5 km/h (7 Bft)
18.12.2014 21:44 11,5 C 10,0 C 97 % 1011,6 hPa 0,0 l/m 0 min 2 min 0 W/m 48,1 km/h (6 Bft)
18.12.2014 21:46 11,5 C 10,0 C 97 % 1011,8 hPa 0,0 l/m 0 min 2 min 0 W/m 43,9 km/h (6 Bft)
18.12.2014 21:48 11,5 C 10,0 C 97 % 1011,6 hPa 0,0 l/m 0 min 2 min 0 W/m 41,8 km/h (6 Bft)
18.12.2014 21:50 11,5 C 10,0 C 97 % 1011,6 hPa 0,0 l/m 0 min 2 min 0 W/m 46,0 km/h (6 Bft)
18.12.2014 21:52 11,5 C 10,0 C 97 % 1011,7 hPa 0,0 l/m 0 min 2 min 0 W/m 48,1 km/h (6 Bft)
18.12.2014 21:54 11,5 C 10,0 C 97 % 1011,6 hPa 0,0 l/m 0 min 2 min 0 W/m 50,2 km/h (7 Bft)
18.12.2014 21:56 11,5 C 10,0 C 97 % 1011,7 hPa 0,0 l/m 0 min 2 min 0 W/m 46,0 km/h (6 Bft)
18.12.2014 21:58 11,6 C 10,0 C 97 % 1011,6 hPa 0,0 l/m 0 min 2 min 0 W/m 56,5 km/h (7 Bft)
18.12.2014 22:00 11,6 C 10,0 C 97 % 1011,6 hPa 0,0 l/m 0 min 2 min 0 W/m 43,9 km/h (6 Bft)
18.12.2014 22:02 11,6 C 10,0 C 97 % 1011,6 hPa 0,0 l/m 0 min 2 min 0 W/m 52,3 km/h (7 Bft)
18.12.2014 22:04 11,6 C 10,0 C 97 % 1011,5 hPa 0,0 l/m 0 min 2 min 0 W/m 52,3 km/h (7 Bft)
18.12.2014 22:06 11,6 C 10,0 C 96 % 1011,6 hPa 0,0 l/m 0 min 2 min 0 W/m 43,9 km/h (6 Bft)
18.12.2014 22:08 11,6 C 10,0 C 96 % 1011,7 hPa 0,0 l/m 0 min 2 min 0 W/m 62,8 km/h (8 Bft)
18.12.2014 22:10 11,7 C 10,0 C 96 % 1011,8 hPa 0,0 l/m 0 min 2 min 0 W/m 50,2 km/h (7 Bft)
18.12.2014 22:12 11,7 C 10,0 C 96 % 1011,7 hPa 0,0 l/m 0 min 2 min 0 W/m 60,7 km/h (7 Bft)
18.12.2014 22:14 11,7 C 10,0 C 96 % 1012,0 hPa 0,0 l/m 0 min 2 min 0 W/m 54,4 km/h (7 Bft)
18.12.2014 22:16 11,7 C 10,0 C 96 % 1011,9 hPa 0,0 l/m 0 min 2 min 0 W/m 46,0 km/h (6 Bft)
18.12.2014 22:18 11,7 C 10,0 C 96 % 1011,9 hPa 0,0 l/m 0 min 2 min 0 W/m 41,8 km/h (6 Bft)
18.12.2014 22:20 11,7 C 10,0 C 96 % 1011,9 hPa 0,0 l/m 0 min 2 min 0 W/m 41,8 km/h (6 Bft)
18.12.2014 22:22 11,7 C 10,0 C 96 % 1011,9 hPa 0,0 l/m 0 min 2 min 0 W/m 37,7 km/h (5 Bft)
18.12.2014 22:24 11,7 C 10,0 C 96 % 1011,9 hPa 0,0 l/m 0 min 2 min 0 W/m 58,6 km/h (7 Bft)
18.12.2014 22:26 11,7 C 10,0 C 96 % 1011,9 hPa 0,0 l/m 0 min 2 min 0 W/m 41,8 km/h (6 Bft)
18.12.2014 22:28 11,7 C 10,0 C 96 % 1011,9 hPa 0,0 l/m 0 min 2 min 0 W/m 37,7 km/h (5 Bft)
18.12.2014 22:30 11,7 C 10,0 C 96 % 1011,9 hPa 0,0 l/m 0 min 2 min 0 W/m 48,1 km/h (6 Bft)
18.12.2014 22:32 11,7 C 10,0 C 96 % 1012,0 hPa 0,0 l/m 0 min 2 min 0 W/m 60,7 km/h (7 Bft)
18.12.2014 22:34 11,7 C 10,0 C 96 % 1012,0 hPa 0,0 l/m 0 min 2 min 0 W/m 41,8 km/h (6 Bft)
18.12.2014 22:36 11,7 C 10,0 C 96 % 1011,9 hPa 0,0 l/m 0 min 2 min 0 W/m 48,1 km/h (6 Bft)
18.12.2014 22:38 11,7 C 10,0 C 96 % 1011,9 hPa 0,0 l/m 0 min 2 min 0 W/m 39,7 km/h (6 Bft)
18.12.2014 22:40 11,7 C 10,0 C 96 % 1011,9 hPa 0,0 l/m 0 min 2 min 0 W/m 50,2 km/h (7 Bft)
18.12.2014 22:42 11,8 C 10,6 C 96 % 1012,0 hPa 0,0 l/m 0 min 2 min 0 W/m 41,8 km/h (6 Bft)
18.12.2014 22:44 11,7 C 10,0 C 96 % 1011,9 hPa 0,0 l/m 0 min 2 min 0 W/m 37,7 km/h (5 Bft)
18.12.2014 22:46 11,7 C 10,6 C 96 % 1011,9 hPa 0,0 l/m 0 min 2 min 0 W/m 48,1 km/h (6 Bft)
18.12.2014 22:48 11,7 C 10,6 C 96 % 1011,9 hPa 0,0 l/m 0 min 2 min 0 W/m 43,9 km/h (6 Bft)
18.12.2014 22:50 11,7 C 10,6 C 95 % 1011,8 hPa 0,0 l/m 0 min 2 min 0 W/m 39,7 km/h (6 Bft)
18.12.2014 22:52 11,8 C 10,6 C 95 % 1011,8 hPa 0,0 l/m 0 min 2 min 0 W/m 43,9 km/h (6 Bft)
18.12.2014 22:54 11,8 C 10,6 C 95 % 1012,0 hPa 0,0 l/m 0 min 2 min 0 W/m 46,0 km/h (6 Bft)
18.12.2014 22:56 11,8 C 10,6 C 95 % 1011,9 hPa 0,0 l/m 0 min 2 min 0 W/m 43,9 km/h (6 Bft)
18.12.2014 22:58 11,8 C 10,6 C 95 % 1011,9 hPa 0,0 l/m 0 min 2 min 0 W/m 33,5 km/h (5 Bft)
18.12.2014 23:00 11,8 C 10,6 C 95 % 1011,8 hPa 0,0 l/m 0 min 2 min 0 W/m 43,9 km/h (6 Bft)
18.12.2014 23:02 11,8 C 10,6 C 95 % 1011,9 hPa 0,0 l/m 0 min 2 min 0 W/m 50,2 km/h (7 Bft)
18.12.2014 23:04 11,8 C 10,6 C 95 % 1011,9 hPa 0,0 l/m 0 min 2 min 0 W/m 39,7 km/h (6 Bft)
18.12.2014 23:06 11,8 C 10,0 C 95 % 1012,0 hPa 0,0 l/m 0 min 2 min 0 W/m 41,8 km/h (6 Bft)
18.12.2014 23:08 11,8 C 10,6 C 95 % 1011,9 hPa 0,0 l/m 0 min 2 min 0 W/m 43,9 km/h (6 Bft)
18.12.2014 23:10 11,8 C 10,6 C 95 % 1011,9 hPa 0,0 l/m 0 min 2 min 0 W/m 52,3 km/h (7 Bft)
18.12.2014 23:12 11,8 C 10,6 C 95 % 1011,8 hPa 0,0 l/m 0 min 2 min 0 W/m 50,2 km/h (7 Bft)
18.12.2014 23:14 11,8 C 10,6 C 95 % 1011,9 hPa 0,0 l/m 0 min 2 min 0 W/m 31,4 km/h (5 Bft)
18.12.2014 23:16 11,8 C 10,6 C 95 % 1011,8 hPa 0,0 l/m 0 min 2 min 0 W/m 56,5 km/h (7 Bft)
18.12.2014 23:18 11,8 C 10,6 C 95 % 1011,8 hPa 0,0 l/m 0 min 2 min 0 W/m 39,7 km/h (6 Bft)
18.12.2014 23:20 11,8 C 10,6 C 95 % 1012,1 hPa 0,0 l/m 0 min 2 min 0 W/m 41,8 km/h (6 Bft)
18.12.2014 23:22 11,8 C 10,6 C 95 % 1012,0 hPa 0,0 l/m 0 min 2 min 0 W/m 50,2 km/h (7 Bft)
18.12.2014 23:24 11,8 C 10,6 C 95 % 1012,0 hPa 0,0 l/m 0 min 2 min 0 W/m 60,7 km/h (7 Bft)
18.12.2014 23:26 11,8 C 10,6 C 95 % 1011,9 hPa 0,0 l/m 0 min 2 min 0 W/m 54,4 km/h (7 Bft)
18.12.2014 23:28 11,8 C 10,6 C 95 % 1011,9 hPa 0,0 l/m 0 min 2 min 0 W/m 43,9 km/h (6 Bft)
18.12.2014 23:30 11,8 C 10,6 C 95 % 1011,8 hPa 0,0 l/m 0 min 2 min 0 W/m 50,2 km/h (7 Bft)
18.12.2014 23:32 11,8 C 10,6 C 95 % 1011,9 hPa 0,0 l/m 0 min 2 min 0 W/m 50,2 km/h (7 Bft)
18.12.2014 23:34 11,9 C 10,6 C 95 % 1011,8 hPa 0,0 l/m 0 min 2 min 0 W/m 43,9 km/h (6 Bft)
18.12.2014 23:36 11,9 C 10,6 C 95 % 1011,9 hPa 0,0 l/m 0 min 2 min 0 W/m 58,6 km/h (7 Bft)
18.12.2014 23:38 11,9 C 10,6 C 95 % 1011,9 hPa 0,0 l/m 0 min 2 min 0 W/m 56,5 km/h (7 Bft)
18.12.2014 23:40 11,9 C 10,6 C 95 % 1011,8 hPa 0,0 l/m 0 min 2 min 0 W/m 43,9 km/h (6 Bft)
18.12.2014 23:42 11,9 C 10,6 C 95 % 1011,9 hPa 0,0 l/m 0 min 2 min 0 W/m 46,0 km/h (6 Bft)
18.12.2014 23:44 11,9 C 10,6 C 95 % 1011,9 hPa 0,0 l/m 0 min 2 min 0 W/m 48,1 km/h (6 Bft)
18.12.2014 23:46 11,9 C 10,6 C 95 % 1012,0 hPa 0,0 l/m 0 min 2 min 0 W/m 50,2 km/h (7 Bft)
18.12.2014 23:48 11,9 C 10,6 C 94 % 1012,1 hPa 0,0 l/m 0 min 2 min 0 W/m 39,7 km/h (6 Bft)
18.12.2014 23:50 11,9 C 10,6 C 94 % 1012,1 hPa 0,0 l/m 0 min 2 min 0 W/m 58,6 km/h (7 Bft)
18.12.2014 23:52 11,9 C 10,6 C 94 % 1012,1 hPa 0,0 l/m 0 min 2 min 0 W/m 43,9 km/h (6 Bft)
18.12.2014 23:54 11,9 C 10,6 C 94 % 1012,1 hPa 0,0 l/m 0 min 2 min 0 W/m 50,2 km/h (7 Bft)
18.12.2014 23:56 11,9 C 10,6 C 94 % 1012,1 hPa 0,0 l/m 0 min 2 min 0 W/m 46,0 km/h (6 Bft)
18.12.2014 23:58 12,0 C 10,6 C 94 % 1012,1 hPa 0,0 l/m 0 min 2 min 0 W/m 52,3 km/h (7 Bft)
_ Min-Zeit 00:00 00:00 19:16 05:44 - - - - 06:44
Minimum _ 9,8 C 8,3 C 90 % 1008,9 hPa - - - - 6,3 km/h (2 Bft)
_ Max-Zeit 17:04 12:22 00:44 23:20 01:00 00:00 04:26 11:24 22:08
Maximum _ 12,4 C 11,1 C 100 % 1012,1 hPa 0,2 l/m 0 min 2 min 94 W/m 62,8 km/h
W (8 Bft)
Durchschnitt _ 11,2 C 9,8 C 98 % 1010,2 hPa #0,8 l/m #0 min. #5:47 h 36 W/m 28,3 km/h (4 Bft)
© 2015 W. Hausmann